Observation data for Panhandle on 02/13/2020      Previous  Date  Next       Current Mesonet Observations  Soil Data  Daily Summary Page  Observations in Plain Language
KPA1 130600Z 01009KT M00/M04 A3015 RMK A01 T10041040  RH  076%=      5-min Rain = 0
KPA1 130601Z 00010KT M00/M04 A3015 RMK A01 T10041039  RH  077%=      5-min Rain = 0
KPA1 130602Z 36008KT M00/M04 A3015 RMK A01 T10041038  RH  078%=      5-min Rain = 0
KPA1 130603Z 36008KT M01/M04 A3015 RMK A01 T10051037  RH  079%=      5-min Rain = 0
KPA1 130604Z 35010KT M01/M04 A3015 RMK A01 T10051036  RH  080%=      5-min Rain = 0
KPA1 130605Z 35011KT M01/M04 A3015 RMK A01 T10051036  RH  079%=      5-min Rain = 0
KPA1 130606Z 35011KT M01/M04 A3015 RMK A01 T10061037  RH  079%=      5-min Rain = 0
KPA1 130607Z 35012KT M01/M04 A3015 RMK A01 T10061039  RH  078%=      5-min Rain = 0
KPA1 130608Z 35010KT M01/M04 A3015 RMK A01 T10071040  RH  078%=      5-min Rain = 0
KPA1 130609Z 36013KT M01/M04 A3016 RMK A01 T10081041  RH  078%=      5-min Rain = 0
KPA1 130610Z 00015KT M01/M04 A3016 RMK A01 T10091044  RH  077%=      5-min Rain = 0
KPA1 130611Z 00011KT M01/M05 A3016 RMK A01 T10091046  RH  076%=      5-min Rain = 0
KPA1 130612Z 01012KT M01/M05 A3015 RMK A01 T10101047  RH  076%=      5-min Rain = 0
KPA1 130613Z 01014KT M01/M05 A3015 RMK A01 T10101047  RH  076%=      5-min Rain = 0
KPA1 130614Z 01014KT M01/M05 A3015 RMK A01 T10101047  RH  076%=      5-min Rain = 0
KPA1 130615Z 01012KT M01/M05 A3016 RMK A01 T10111048  RH  076%=      5-min Rain = 0
KPA1 130616Z 00014KT M01/M05 A3015 RMK A01 T10111048  RH  076%=      5-min Rain = 0
KPA1 130617Z 00012KT M01/M05 A3016 RMK A01 T10111048  RH  076%=      5-min Rain = 0
KPA1 130618Z 00011KT M01/M05 A3015 RMK A01 T10121049  RH  076%=      5-min Rain = 0
KPA1 130619Z 01012KT M01/M05 A3015 RMK A01 T10121049  RH  076%=      5-min Rain = 0
KPA1 130620Z 01011KT M01/M05 A3015 RMK A01 T10121049  RH  076%=      5-min Rain = 0
KPA1 130621Z 01011KT M01/M05 A3015 RMK A01 T10131049  RH  076%=      5-min Rain = 0
KPA1 130622Z 01012G18KT M01/M05 A3015 RMK A01 T10131050  RH  076%=      5-min Rain = 0
KPA1 130623Z 01012KT M01/M05 A3015 RMK A01 T10141051  RH  076%=      5-min Rain = 0
KPA1 130624Z 01015KT M01/M05 A3015 RMK A01 T10141053  RH  075%=      5-min Rain = 0
KPA1 130625Z 02014KT M02/M05 A3015 RMK A01 T10151054  RH  075%=      5-min Rain = 0
KPA1 130626Z 01011KT M02/M05 A3015 RMK A01 T10151054  RH  074%=      5-min Rain = 0
KPA1 130627Z 01012KT M02/M05 A3015 RMK A01 T10151054  RH  075%=      5-min Rain = 0
KPA1 130628Z 01011KT M02/M05 A3015 RMK A01 T10151054  RH  075%=      5-min Rain = 0
KPA1 130629Z 01011KT M02/M05 A3015 RMK A01 T10151053  RH  075%=      5-min Rain = 0
KPA1 130630Z 01011G16KT M02/M05 A3015 RMK A01 T10151053  RH  076%=      5-min Rain = 0
KPA1 130631Z 02014KT M02/M05 A3015 RMK A01 T10161053  RH  076%=      5-min Rain = 0
KPA1 130632Z 01013KT M02/M05 A3015 RMK A01 T10161054  RH  076%=      5-min Rain = 0
KPA1 130633Z 00010KT M02/M05 A3015 RMK A01 T10161053  RH  076%=      5-min Rain = 0
KPA1 130634Z 01013KT M02/M05 A3016 RMK A01 T10161053  RH  076%=      5-min Rain = 0
KPA1 130635Z 36012KT M02/M05 A3016 RMK A01 T10161053  RH  076%=      5-min Rain = 0
KPA1 130636Z 36011KT M02/M05 A3016 RMK A01 T10161053  RH  076%=      5-min Rain = 0
KPA1 130637Z 36010KT M02/M05 A3016 RMK A01 T10161053  RH  076%=      5-min Rain = 0
KPA1 130638Z 36012KT M02/M05 A3016 RMK A01 T10171053  RH  076%=      5-min Rain = 0
KPA1 130639Z 36012KT M02/M05 A3016 RMK A01 T10171053  RH  076%=      5-min Rain = 0
KPA1 130640Z 00012KT M02/M05 A3016 RMK A01 T10171053  RH  076%=      5-min Rain = 0
KPA1 130641Z 00012KT M02/M05 A3016 RMK A01 T10171054  RH  076%=      5-min Rain = 0
KPA1 130642Z 36013KT M02/M05 A3016 RMK A01 T10171053  RH  076%=      5-min Rain = 0
KPA1 130643Z 36015KT M02/M05 A3016 RMK A01 T10181054  RH  077%=      5-min Rain = 0
KPA1 130644Z 36013KT M02/M05 A3016 RMK A01 T10181054  RH  076%=      5-min Rain = 0
KPA1 130645Z 00013KT M02/M05 A3016 RMK A01 T10191054  RH  077%=      5-min Rain = 0
KPA1 130646Z 00011KT M02/M06 A3016 RMK A01 T10191055  RH  077%=      5-min Rain = 0
KPA1 130647Z 00012KT M02/M06 A3016 RMK A01 T10201055  RH  077%=      5-min Rain = 0
KPA1 130648Z 01011KT M02/M06 A3016 RMK A01 T10211056  RH  077%=      5-min Rain = 0
KPA1 130649Z 01012KT M02/M06 A3015 RMK A01 T10211056  RH  077%=      5-min Rain = 0
KPA1 130650Z 01011KT M02/M06 A3015 RMK A01 T10211057  RH  076%=      5-min Rain = 0
KPA1 130651Z 01011KT M02/M06 A3015 RMK A01 T10221057  RH  077%=      5-min Rain = 0
KPA1 130652Z 01012KT M02/M06 A3015 RMK A01 T10221057  RH  077%=      5-min Rain = 0
KPA1 130653Z 01011KT M02/M06 A3016 RMK A01 T10221057  RH  077%=      5-min Rain = 0
KPA1 130654Z 36011KT M02/M06 A3016 RMK A01 T10221057  RH  077%=      5-min Rain = 0
KPA1 130655Z 36013KT M02/M06 A3016 RMK A01 T10231057  RH  077%=      5-min Rain = 0
KPA1 130656Z 36014KT M02/M06 A3016 RMK A01 T10231058  RH  077%=      5-min Rain = 0
KPA1 130657Z 00014KT M02/M06 A3016 RMK A01 T10231059  RH  077%=      5-min Rain = 0
KPA1 130658Z 00013KT M02/M06 A3016 RMK A01 T10231059  RH  077%=      5-min Rain = 0
KPA1 130659Z 36013G18KT M02/M06 A3016 RMK A01 T10231059  RH  077%=      5-min Rain = 0
KPA1 130700Z 00014KT M02/M06 A3016 RMK A01 T10241060  RH  077%=      5-min Rain = 0
KPA1 130701Z 36011KT M03/M06 A3016 RMK A01 T10251060  RH  076%=      5-min Rain = 0
KPA1 130702Z 00015KT M03/M06 A3016 RMK A01 T10251061  RH  077%=      5-min Rain = 0
KPA1 130703Z 36016KT M03/M06 A3016 RMK A01 T10251061  RH  077%=      5-min Rain = 0
KPA1 130704Z 00014KT M03/M06 A3016 RMK A01 T10261062  RH  076%=      5-min Rain = 0
KPA1 130705Z 00014KT M03/M06 A3016 RMK A01 T10261062  RH  076%=      5-min Rain = 0
KPA1 130706Z 00013KT M03/M06 A3016 RMK A01 T10271062  RH  076%=      5-min Rain = 0
KPA1 130707Z 01011KT M03/M06 A3016 RMK A01 T10271062  RH  077%=      5-min Rain = 0
KPA1 130708Z 00012KT M03/M06 A3016 RMK A01 T10281062  RH  077%=      5-min Rain = 0
KPA1 130709Z 01012KT M03/M06 A3016 RMK A01 T10281062  RH  078%=      5-min Rain = 0
KPA1 130710Z 01013KT M03/M06 A3016 RMK A01 T10291062  RH  078%=      5-min Rain = 0
KPA1 130711Z 01012KT M03/M06 A3016 RMK A01 T10291062  RH  078%=      5-min Rain = 0
KPA1 130712Z 01011KT M03/M06 A3016 RMK A01 T10291063  RH  077%=      5-min Rain = 0
KPA1 130713Z 01011KT M03/M06 A3016 RMK A01 T10291063  RH  077%=      5-min Rain = 0
KPA1 130714Z 00012KT M03/M06 A3016 RMK A01 T10291063  RH  077%=      5-min Rain = 0
KPA1 130715Z 00010KT M03/M06 A3017 RMK A01 T10291063  RH  078%=      5-min Rain = 0
KPA1 130716Z 00009KT M03/M06 A3017 RMK A01 T10301062  RH  078%=      5-min Rain = 0
KPA1 130717Z 00011KT M03/M06 A3017 RMK A01 T10311063  RH  079%=      5-min Rain = 0
KPA1 130718Z 00013KT M03/M06 A3017 RMK A01 T10311063  RH  079%=      5-min Rain = 0
KPA1 130719Z 36011KT M03/M06 A3017 RMK A01 T10311062  RH  079%=      5-min Rain = 0
KPA1 130720Z 00011KT M03/M06 A3017 RMK A01 T10311062  RH  079%=      5-min Rain = 0
KPA1 130721Z 36014KT M03/M06 A3017 RMK A01 T10311062  RH  079%=      5-min Rain = 0
KPA1 130722Z 00014KT M03/M06 A3017 RMK A01 T10311063  RH  079%=      5-min Rain = 0
KPA1 130723Z 00014KT M03/M06 A3017 RMK A01 T10311063  RH  078%=      5-min Rain = 0
KPA1 130724Z 00011KT M03/M06 A3017 RMK A01 T10321064  RH  079%=      5-min Rain = 0
KPA1 130725Z 00014KT M03/M06 A3017 RMK A01 T10321064  RH  079%=      5-min Rain = 0
KPA1 130726Z 00012KT M03/M06 A3017 RMK A01 T10321063  RH  079%=      5-min Rain = 0
KPA1 130727Z 00013KT M03/M06 A3017 RMK A01 T10321063  RH  079%=      5-min Rain = 0
KPA1 130728Z 00013KT M03/M06 A3017 RMK A01 T10321063  RH  079%=      5-min Rain = 0
KPA1 130729Z 00012KT M03/M06 A3017 RMK A01 T10331063  RH  079%=      5-min Rain = 0
KPA1 130730Z 01013KT M03/M06 A3017 RMK A01 T10331064  RH  079%=      5-min Rain = 0
KPA1 130731Z 36009KT M03/M06 A3017 RMK A01 T10331064  RH  079%=      5-min Rain = 0
KPA1 130732Z 00011KT M03/M06 A3017 RMK A01 T10341064  RH  080%=      5-min Rain = 0
KPA1 130733Z 01013KT M04/M07 A3017 RMK A01 T10351065  RH  080%=      5-min Rain = 0
KPA1 130734Z 01012KT M04/M07 A3017 RMK A01 T10351065  RH  080%=      5-min Rain = 0
KPA1 130735Z 01013KT M03/M07 A3017 RMK A01 T10341065  RH  079%=      5-min Rain = 0
KPA1 130736Z 01010KT M03/M07 A3017 RMK A01 T10341066  RH  079%=      5-min Rain = 0
KPA1 130737Z 00010KT M03/M07 A3017 RMK A01 T10341066  RH  079%=      5-min Rain = 0
KPA1 130738Z 36010KT M04/M07 A3017 RMK A01 T10351065  RH  079%=      5-min Rain = 0
KPA1 130739Z 36011KT M04/M07 A3017 RMK A01 T10351065  RH  080%=      5-min Rain = 0
KPA1 130740Z 00009KT M04/M07 A3017 RMK A01 T10351065  RH  080%=      5-min Rain = 0
KPA1 130741Z 01009G14KT M04/M07 A3017 RMK A01 T10361065  RH  080%=      5-min Rain = 0
KPA1 130742Z 36013KT M04/M07 A3017 RMK A01 T10361065  RH  080%=      5-min Rain = 0
KPA1 130743Z 01009KT M04/M07 A3017 RMK A01 T10361065  RH  080%=      5-min Rain = 0
KPA1 130744Z 01011KT M04/M07 A3017 RMK A01 T10361065  RH  080%=      5-min Rain = 0
KPA1 130745Z 01012KT M04/M07 A3017 RMK A01 T10361066  RH  080%=      5-min Rain = 0
KPA1 130746Z 01009KT M04/M07 A3017 RMK A01 T10361066  RH  080%=      5-min Rain = 0
KPA1 130747Z 01009KT M04/M07 A3017 RMK A01 T10371066  RH  080%=      5-min Rain = 0
KPA1 130748Z 00010KT M04/M07 A3017 RMK A01 T10371067  RH  080%=      5-min Rain = 0
KPA1 130749Z 00008KT M04/M07 A3018 RMK A01 T10381066  RH  081%=      5-min Rain = 0
KPA1 130750Z 00008KT M04/M07 A3018 RMK A01 T10381066  RH  081%=      5-min Rain = 0
KPA1 130751Z 00009KT M04/M07 A3018 RMK A01 T10391066  RH  081%=      5-min Rain = 0
KPA1 130752Z 00009KT M04/M07 A3018 RMK A01 T10391066  RH  081%=      5-min Rain = 0
KPA1 130753Z 00009KT M04/M07 A3018 RMK A01 T10391066  RH  081%=      5-min Rain = 0
KPA1 130754Z 35007KT M04/M07 A3018 RMK A01 T10391066  RH  081%=      5-min Rain = 0
KPA1 130755Z 36007KT M04/M07 A3018 RMK A01 T10391066  RH  081%=      5-min Rain = 0
KPA1 130756Z 36009KT M04/M07 A3018 RMK A01 T10391066  RH  082%=      5-min Rain = 0
KPA1 130757Z 00011KT M04/M07 A3018 RMK A01 T10401067  RH  082%=      5-min Rain = 0
KPA1 130758Z 00008KT M04/M07 A3018 RMK A01 T10401067  RH  081%=      5-min Rain = 0
KPA1 130759Z 36008KT M04/M07 A3018 RMK A01 T10401068  RH  081%=      5-min Rain = 0
KPA1 130800Z 00009KT M04/M07 A3018 RMK A01 T10411068  RH  081%=      5-min Rain = 0
KPA1 130801Z 00008KT M04/M07 A3018 RMK A01 T10411068  RH  082%=      5-min Rain = 0
KPA1 130802Z 01007KT M04/M07 A3018 RMK A01 T10411068  RH  082%=      5-min Rain = 0
KPA1 130803Z 01010KT M04/M07 A3018 RMK A01 T10411068  RH  081%=      5-min Rain = 0
KPA1 130804Z 01010KT M04/M07 A3018 RMK A01 T10421069  RH  081%=      5-min Rain = 0
KPA1 130805Z 01008KT M04/M07 A3018 RMK A01 T10411069  RH  081%=      5-min Rain = 0
KPA1 130806Z 00009KT M04/M07 A3018 RMK A01 T10421069  RH  081%=      5-min Rain = 0
KPA1 130807Z 01010KT M04/M07 A3018 RMK A01 T10421070  RH  081%=      5-min Rain = 0
KPA1 130808Z 01010KT M04/M07 A3018 RMK A01 T10421071  RH  081%=      5-min Rain = 0
KPA1 130809Z 00011KT M04/M07 A3018 RMK A01 T10431071  RH  081%=      5-min Rain = 0
KPA1 130810Z 01011KT M04/M07 A3018 RMK A01 T10421071  RH  080%=      5-min Rain = 0
KPA1 130811Z 01011KT M04/M07 A3018 RMK A01 T10421072  RH  080%=      5-min Rain = 0
KPA1 130812Z 02010KT M04/M07 A3018 RMK A01 T10431073  RH  080%=      5-min Rain = 0
KPA1 130813Z 02010KT M04/M07 A3018 RMK A01 T10431073  RH  079%=      5-min Rain = 0
KPA1 130814Z 02011G16KT M04/M07 A3018 RMK A01 T10431073  RH  079%=      5-min Rain = 0
KPA1 130815Z 02010KT M04/M07 A3019 RMK A01 T10431074  RH  079%=      5-min Rain = 0
KPA1 130816Z 01007KT M04/M07 A3019 RMK A01 T10441074  RH  079%=      5-min Rain = 0
KPA1 130817Z 01010KT M04/M07 A3019 RMK A01 T10441074  RH  079%=      5-min Rain = 0
KPA1 130818Z 01010KT M04/M07 A3019 RMK A01 T10441074  RH  080%=      5-min Rain = 0
KPA1 130819Z 02009KT M04/M08 A3019 RMK A01 T10441075  RH  079%=      5-min Rain = 0
KPA1 130820Z 02009KT M04/M08 A3019 RMK A01 T10441075  RH  079%=      5-min Rain = 0
KPA1 130821Z 02008KT M05/M08 A3019 RMK A01 T10451075  RH  080%=      5-min Rain = 0
KPA1 130822Z 01010KT M05/M07 A3019 RMK A01 T10451074  RH  080%=      5-min Rain = 0
KPA1 130823Z 02009KT M05/M07 A3019 RMK A01 T10451074  RH  080%=      5-min Rain = 0
KPA1 130824Z 02008KT M05/M07 A3019 RMK A01 T10461074  RH  080%=      5-min Rain = 0
KPA1 130825Z 01009KT M05/M08 A3019 RMK A01 T10461075  RH  080%=      5-min Rain = 0
KPA1 130826Z 01010KT M05/M07 A3019 RMK A01 T10461074  RH  081%=      5-min Rain = 0
KPA1 130827Z 01010KT M05/M07 A3019 RMK A01 T10461074  RH  081%=      5-min Rain = 0
KPA1 130828Z 01009KT M05/M07 A3019 RMK A01 T10461074  RH  081%=      5-min Rain = 0
KPA1 130829Z 01010KT M05/M07 A3019 RMK A01 T10461074  RH  081%=      5-min Rain = 0
KPA1 130830Z 01009KT M05/M07 A3019 RMK A01 T10461074  RH  081%=      5-min Rain = 0
KPA1 130831Z 02009KT M05/M07 A3019 RMK A01 T10461074  RH  081%=      5-min Rain = 0
KPA1 130832Z 02010KT M05/M07 A3019 RMK A01 T10461074  RH  081%=      5-min Rain = 0
KPA1 130833Z 01012KT M05/M08 A3019 RMK A01 T10471075  RH  081%=      5-min Rain = 0
KPA1 130834Z 01013KT M05/M08 A3019 RMK A01 T10471076  RH  081%=      5-min Rain = 0
KPA1 130835Z 02011KT M05/M08 A3019 RMK A01 T10471076  RH  080%=      5-min Rain = 0
KPA1 130836Z 01013KT M05/M08 A3019 RMK A01 T10461076  RH  080%=      5-min Rain = 0
KPA1 130837Z 01012KT M05/M08 A3019 RMK A01 T10461076  RH  080%=      5-min Rain = 0
KPA1 130838Z 01012KT M05/M08 A3019 RMK A01 T10471077  RH  079%=      5-min Rain = 0
KPA1 130839Z 01011KT M05/M08 A3019 RMK A01 T10471077  RH  079%=      5-min Rain = 0
KPA1 130840Z 01012KT M05/M08 A3019 RMK A01 T10481078  RH  079%=      5-min Rain = 0
KPA1 130841Z 01012KT M05/M08 A3019 RMK A01 T10481078  RH  079%=      5-min Rain = 0
KPA1 130842Z 01011KT M05/M08 A3019 RMK A01 T10481078  RH  079%=      5-min Rain = 0
KPA1 130843Z 01010KT M05/M08 A3019 RMK A01 T10481078  RH  079%=      5-min Rain = 0
KPA1 130844Z 01009KT M05/M08 A3019 RMK A01 T10491078  RH  080%=      5-min Rain = 0
KPA1 130845Z 01010KT M05/M08 A3019 RMK A01 T10491078  RH  080%=      5-min Rain = 0
KPA1 130846Z 01012KT M05/M08 A3019 RMK A01 T10501078  RH  081%=      5-min Rain = 0
KPA1 130847Z 01013KT M05/M08 A3019 RMK A01 T10501078  RH  081%=      5-min Rain = 0
KPA1 130848Z 01013KT M05/M08 A3019 RMK A01 T10501078  RH  081%=      5-min Rain = 0
KPA1 130849Z 02012KT M05/M08 A3019 RMK A01 T10501078  RH  080%=      5-min Rain = 0
KPA1 130850Z 02013KT M05/M08 A3019 RMK A01 T10501079  RH  080%=      5-min Rain = 0
KPA1 130851Z 01012KT M05/M08 A3019 RMK A01 T10501078  RH  080%=      5-min Rain = 0
KPA1 130852Z 02011KT M05/M08 A3019 RMK A01 T10501079  RH  080%=      5-min Rain = 0
KPA1 130853Z 01010KT M05/M08 A3019 RMK A01 T10511078  RH  081%=      5-min Rain = 0
KPA1 130854Z 02011KT M05/M08 A3019 RMK A01 T10511078  RH  081%=      5-min Rain = 0
KPA1 130855Z 01012KT M05/M08 A3019 RMK A01 T10511077  RH  082%=      5-min Rain = 0
KPA1 130856Z 01010KT M05/M08 A3019 RMK A01 T10511078  RH  082%=      5-min Rain = 0
KPA1 130857Z 01010KT M05/M08 A3019 RMK A01 T10511078  RH  082%=      5-min Rain = 0
KPA1 130858Z 01009KT M05/M08 A3019 RMK A01 T10511078  RH  082%=      5-min Rain = 0
KPA1 130859Z 01008KT M05/M08 A3019 RMK A01 T10511078  RH  082%=      5-min Rain = 0
KPA1 130900Z 01009KT M05/M08 A3019 RMK A01 T10521078  RH  082%=      5-min Rain = 0
KPA1 130901Z 01008KT M05/M08 A3019 RMK A01 T10521078  RH  082%=      5-min Rain = 0
KPA1 130902Z 01009KT M05/M08 A3019 RMK A01 T10521077  RH  082%=      5-min Rain = 0
KPA1 130903Z 01007KT M05/M08 A3019 RMK A01 T10521077  RH  083%=      5-min Rain = 0
KPA1 130904Z 01007KT M05/M08 A3019 RMK A01 T10531078  RH  083%=      5-min Rain = 0
KPA1 130905Z 01008KT M05/M08 A3019 RMK A01 T10531077  RH  083%=      5-min Rain = 0
KPA1 130906Z 01007KT M05/M08 A3019 RMK A01 T10531078  RH  083%=      5-min Rain = 0
KPA1 130907Z 01008KT M05/M08 A3019 RMK A01 T10531077  RH  083%=      5-min Rain = 0
KPA1 130908Z 01007KT M05/M08 A3019 RMK A01 T10531077  RH  083%=      5-min Rain = 0
KPA1 130909Z 02008KT M05/M08 A3019 RMK A01 T10531077  RH  083%=      5-min Rain = 0
KPA1 130910Z 01007KT M05/M08 A3019 RMK A01 T10531077  RH  083%=      5-min Rain = 0
KPA1 130911Z 00006KT M05/M08 A3019 RMK A01 T10531077  RH  083%=      5-min Rain = 0
KPA1 130912Z 01006KT M05/M08 A3019 RMK A01 T10531076  RH  084%=      5-min Rain = 0
KPA1 130913Z 00007KT M05/M08 A3019 RMK A01 T10531076  RH  084%=      5-min Rain = 0
KPA1 130914Z 00007KT M05/M08 A3019 RMK A01 T10531076  RH  084%=      5-min Rain = 0
KPA1 130915Z 01009KT M05/M08 A3019 RMK A01 T10531077  RH  084%=      5-min Rain = 0
KPA1 130916Z 00008KT M05/M08 A3019 RMK A01 T10531077  RH  083%=      5-min Rain = 0
KPA1 130917Z 01008KT M05/M08 A3019 RMK A01 T10531077  RH  083%=      5-min Rain = 0
KPA1 130918Z 01009KT M05/M08 A3019 RMK A01 T10531076  RH  083%=      5-min Rain = 0
KPA1 130919Z 01009KT M05/M08 A3019 RMK A01 T10531077  RH  083%=      5-min Rain = 0
KPA1 130920Z 00010KT M05/M08 A3019 RMK A01 T10531077  RH  083%=      5-min Rain = 0
KPA1 130921Z 00010KT M05/M08 A3019 RMK A01 T10531078  RH  083%=      5-min Rain = 0
KPA1 130922Z 00009KT M05/M08 A3019 RMK A01 T10531078  RH  083%=      5-min Rain = 0
KPA1 130923Z 36009KT M05/M08 A3019 RMK A01 T10531078  RH  083%=      5-min Rain = 0
KPA1 130924Z 36009KT M05/M08 A3019 RMK A01 T10531077  RH  083%=      5-min Rain = 0
KPA1 130925Z 00009KT M05/M08 A3019 RMK A01 T10531077  RH  083%=      5-min Rain = 0
KPA1 130926Z 35008KT M05/M08 A3019 RMK A01 T10531077  RH  083%=      5-min Rain = 0
KPA1 130927Z 35008KT M05/M08 A3019 RMK A01 T10531078  RH  083%=      5-min Rain = 0
KPA1 130928Z 36009KT M05/M08 A3019 RMK A01 T10541078  RH  083%=      5-min Rain = 0
KPA1 130929Z 35007KT M05/M08 A3019 RMK A01 T10541078  RH  083%=      5-min Rain = 0
KPA1 130930Z 35008KT M05/M08 A3019 RMK A01 T10541078  RH  083%=      5-min Rain = 0
KPA1 130931Z 34009KT M06/M08 A3019 RMK A01 T10551078  RH  083%=      5-min Rain = 0
KPA1 130932Z 35008KT M06/M08 A3019 RMK A01 T10551079  RH  083%=      5-min Rain = 0
KPA1 130933Z 35007KT M06/M08 A3019 RMK A01 T10551079  RH  083%=      5-min Rain = 0
KPA1 130934Z 35007KT M06/M08 A302 RMK A01 T10551079  RH  083%=      5-min Rain = 0
KPA1 130935Z 35006KT M06/M08 A302 RMK A01 T10551078  RH  084%=      5-min Rain = 0
KPA1 130936Z 35007KT M06/M08 A302 RMK A01 T10551078  RH  084%=      5-min Rain = 0
KPA1 130937Z 36006KT M06/M08 A302 RMK A01 T10551078  RH  084%=      5-min Rain = 0
KPA1 130938Z 36005KT M06/M08 A302 RMK A01 T10561078  RH  084%=      5-min Rain = 0
KPA1 130939Z 36006KT M06/M08 A302 RMK A01 T10561078  RH  084%=      5-min Rain = 0
KPA1 130940Z 36007KT M06/M08 A302 RMK A01 T10561078  RH  085%=      5-min Rain = 0
KPA1 130941Z 36007KT M06/M08 A302 RMK A01 T10571078  RH  085%=      5-min Rain = 0
KPA1 130942Z 36008KT M06/M08 A302 RMK A01 T10571078  RH  085%=      5-min Rain = 0
KPA1 130943Z 36008KT M06/M08 A302 RMK A01 T10561078  RH  085%=      5-min Rain = 0
KPA1 130944Z 00009KT M06/M08 A302 RMK A01 T10561078  RH  085%=      5-min Rain = 0
KPA1 130945Z 00009KT M06/M08 A302 RMK A01 T10561078  RH  085%=      5-min Rain = 0
KPA1 130946Z 00009KT M06/M08 A302 RMK A01 T10561078  RH  085%=      5-min Rain = 0
KPA1 130947Z 00009KT M06/M08 A302 RMK A01 T10561077  RH  085%=      5-min Rain = 0
KPA1 130948Z 36009KT M06/M08 A302 RMK A01 T10561077  RH  085%=      5-min Rain = 0
KPA1 130949Z 00009KT M06/M08 A302 RMK A01 T10561077  RH  085%=      5-min Rain = 0
KPA1 130950Z 36010KT M06/M08 A302 RMK A01 T10561076  RH  085%=      5-min Rain = 0
KPA1 130951Z 36009KT M06/M08 A3019 RMK A01 T10561076  RH  086%=      5-min Rain = 0
KPA1 130952Z 36008KT M06/M08 A3019 RMK A01 T10561076  RH  086%=      5-min Rain = 0
KPA1 130953Z 00010KT M06/M08 A3019 RMK A01 T10551075  RH  086%=      5-min Rain = 0
KPA1 130954Z 00010KT M06/M08 A3019 RMK A01 T10551075  RH  086%=      5-min Rain = 0
KPA1 130955Z 36010KT M06/M08 A3019 RMK A01 T10551075  RH  086%=      5-min Rain = 0
KPA1 130956Z 00010KT M06/M08 A3019 RMK A01 T10551075  RH  086%=      5-min Rain = 0
KPA1 130957Z 36010KT M06/M08 A3019 RMK A01 T10551076  RH  085%=      5-min Rain = 0
KPA1 130958Z 36008KT M06/M08 A3019 RMK A01 T10551076  RH  085%=      5-min Rain = 0
KPA1 130959Z 00008KT M06/M08 A3019 RMK A01 T10551076  RH  085%=      5-min Rain = 0
KPA1 131000Z 00007KT M06/M08 A3019 RMK A01 T10551076  RH  085%=      5-min Rain = 0
KPA1 131001Z 00008KT M06/M08 A3019 RMK A01 T10561077  RH  085%=      5-min Rain = 0
KPA1 131002Z 00007KT M06/M08 A3019 RMK A01 T10551077  RH  085%=      5-min Rain = 0
KPA1 131003Z 01008KT M06/M08 A3019 RMK A01 T10561078  RH  085%=      5-min Rain = 0
KPA1 131004Z 02008KT M06/M08 A3019 RMK A01 T10561078  RH  084%=      5-min Rain = 0
KPA1 131005Z 02008KT M06/M08 A302 RMK A01 T10561079  RH  084%=      5-min Rain = 0
KPA1 131006Z 01011KT M06/M08 A302 RMK A01 T10561079  RH  084%=      5-min Rain = 0
KPA1 131007Z 01010KT M06/M08 A302 RMK A01 T10571080  RH  084%=      5-min Rain = 0
KPA1 131008Z 01010KT M06/M08 A3019 RMK A01 T10571081  RH  084%=      5-min Rain = 0
KPA1 131009Z 02010KT M06/M08 A3019 RMK A01 T10571081  RH  083%=      5-min Rain = 0
KPA1 131010Z 01010KT M06/M08 A302 RMK A01 T10581082  RH  083%=      5-min Rain = 0
KPA1 131011Z 01012KT M06/M08 A302 RMK A01 T10581082  RH  083%=      5-min Rain = 0
KPA1 131012Z 01010KT M06/M08 A302 RMK A01 T10581083  RH  083%=      5-min Rain = 0
KPA1 131013Z 01009KT M06/M08 A302 RMK A01 T10591083  RH  083%=      5-min Rain = 0
KPA1 131014Z 01009KT M06/M08 A302 RMK A01 T10591083  RH  083%=      5-min Rain = 0
KPA1 131015Z 01008KT M06/M08 A302 RMK A01 T10591082  RH  084%=      5-min Rain = 0
KPA1 131016Z 01008KT M06/M08 A302 RMK A01 T10591081  RH  084%=      5-min Rain = 0
KPA1 131017Z 01008KT M06/M08 A302 RMK A01 T10591081  RH  084%=      5-min Rain = 0
KPA1 131018Z 01008KT M06/M08 A302 RMK A01 T10591081  RH  085%=      5-min Rain = 0
KPA1 131019Z 02010KT M06/M08 A302 RMK A01 T10591081  RH  085%=      5-min Rain = 0
KPA1 131020Z 02010KT M06/M08 A302 RMK A01 T10591081  RH  084%=      5-min Rain = 0
KPA1 131021Z 02010KT M06/M08 A3019 RMK A01 T10591082  RH  084%=      5-min Rain = 0
KPA1 131022Z 02010KT M06/M08 A3019 RMK A01 T10591082  RH  084%=      5-min Rain = 0
KPA1 131023Z 02009KT M06/M08 A3019 RMK A01 T10591082  RH  084%=      5-min Rain = 0
KPA1 131024Z 01010KT M06/M08 A3019 RMK A01 T10591082  RH  084%=      5-min Rain = 0
KPA1 131025Z 01010KT M06/M08 A3019 RMK A01 T10591083  RH  084%=      5-min Rain = 0
KPA1 131026Z 01009KT M06/M08 A3019 RMK A01 T10601083  RH  084%=      5-min Rain = 0
KPA1 131027Z 01009KT M06/M08 A3019 RMK A01 T10601083  RH  084%=      5-min Rain = 0
KPA1 131028Z 01010KT M06/M08 A3019 RMK A01 T10601083  RH  084%=      5-min Rain = 0
KPA1 131029Z 00008KT M06/M08 A3019 RMK A01 T10601083  RH  084%=      5-min Rain = 0
KPA1 131030Z 01009KT M06/M08 A3019 RMK A01 T10601082  RH  084%=      5-min Rain = 0
KPA1 131031Z 01008KT M06/M08 A302 RMK A01 T10601083  RH  084%=      5-min Rain = 0
KPA1 131032Z 01008KT M06/M08 A302 RMK A01 T10601083  RH  084%=      5-min Rain = 0
KPA1 131033Z 36009KT M06/M08 A302 RMK A01 T10611083  RH  084%=      5-min Rain = 0
KPA1 131034Z 01007KT M06/M08 A302 RMK A01 T10611083  RH  084%=      5-min Rain = 0
KPA1 131035Z 01008KT M06/M08 A302 RMK A01 T10611083  RH  085%=      5-min Rain = 0
KPA1 131036Z 01010KT M06/M08 A302 RMK A01 T10621083  RH  085%=      5-min Rain = 0
KPA1 131037Z 00008KT M06/M08 A302 RMK A01 T10621084  RH  085%=      5-min Rain = 0
KPA1 131038Z 01009KT M06/M08 A302 RMK A01 T10621083  RH  085%=      5-min Rain = 0
KPA1 131039Z 00010KT M06/M08 A3019 RMK A01 T10621083  RH  085%=      5-min Rain = 0
KPA1 131040Z 01009KT M06/M08 A3019 RMK A01 T10621084  RH  085%=      5-min Rain = 0
KPA1 131041Z 00010KT M06/M08 A3019 RMK A01 T10621084  RH  085%=      5-min Rain = 0
KPA1 131042Z 01010KT M06/M08 A3019 RMK A01 T10631084  RH  085%=      5-min Rain = 0
KPA1 131043Z 01009KT M06/M08 A3019 RMK A01 T10631084  RH  085%=      5-min Rain = 0
KPA1 131044Z 01008KT M06/M08 A3019 RMK A01 T10631084  RH  085%=      5-min Rain = 0
KPA1 131045Z 01007KT M06/M08 A3019 RMK A01 T10631083  RH  085%=      5-min Rain = 0
KPA1 131046Z 01006KT M06/M08 A3019 RMK A01 T10631083  RH  086%=      5-min Rain = 0
KPA1 131047Z 01007KT M06/M08 A3019 RMK A01 T10641083  RH  086%=      5-min Rain = 0
KPA1 131048Z 01008KT M06/M08 A3019 RMK A01 T10641083  RH  086%=      5-min Rain = 0
KPA1 131049Z 02008KT M06/M08 A3019 RMK A01 T10641083  RH  087%=      5-min Rain = 0
KPA1 131050Z 02010KT M06/M08 A3019 RMK A01 T10641083  RH  087%=      5-min Rain = 0
KPA1 131051Z 02010KT M06/M08 A3019 RMK A01 T10641083  RH  087%=      5-min Rain = 0
KPA1 131052Z 02009KT M06/M08 A3019 RMK A01 T10641083  RH  087%=      5-min Rain = 0
KPA1 131053Z 02009KT M06/M08 A3019 RMK A01 T10641083  RH  087%=      5-min Rain = 0
KPA1 131054Z 02009KT M06/M08 A3019 RMK A01 T10641083  RH  087%=      5-min Rain = 0
KPA1 131055Z 01010KT M06/M08 A3019 RMK A01 T10641083  RH  087%=      5-min Rain = 0
KPA1 131056Z 01010KT M07/M08 A3019 RMK A01 T10651083  RH  087%=      5-min Rain = 0
KPA1 131057Z 01008KT M07/M08 A302 RMK A01 T10651082  RH  087%=      5-min Rain = 0
KPA1 131058Z 01008KT M06/M08 A302 RMK A01 T10641082  RH  087%=      5-min Rain = 0
KPA1 131059Z 01009KT M06/M08 A302 RMK A01 T10641082  RH  087%=      5-min Rain = 0
KPA1 131100Z 01010KT M06/M08 A302 RMK A01 T10641082  RH  087%=      5-min Rain = 0
KPA1 131101Z 01011KT M06/M08 A302 RMK A01 T10641082  RH  087%=      5-min Rain = 0
KPA1 131102Z 01010KT M06/M08 A302 RMK A01 T10641083  RH  087%=      5-min Rain = 0
KPA1 131103Z 01010KT M07/M08 A302 RMK A01 T10651083  RH  087%=      5-min Rain = 0
KPA1 131104Z 01011KT M06/M08 A302 RMK A01 T10641083  RH  087%=      5-min Rain = 0
KPA1 131105Z 01010KT M06/M08 A302 RMK A01 T10641083  RH  087%=      5-min Rain = 0
KPA1 131106Z 01009KT M06/M08 A302 RMK A01 T10641083  RH  087%=      5-min Rain = 0
KPA1 131107Z 01010KT M07/M08 A302 RMK A01 T10651083  RH  087%=      5-min Rain = 0
KPA1 131108Z 01011KT M06/M08 A302 RMK A01 T10641082  RH  087%=      5-min Rain = 0
KPA1 131109Z 00010KT M06/M08 A302 RMK A01 T10641082  RH  087%=      5-min Rain = 0
KPA1 131110Z 00013KT M06/M08 A302 RMK A01 T10641082  RH  087%=      5-min Rain = 0
KPA1 131111Z 00011KT M06/M08 A302 RMK A01 T10641082  RH  087%=      5-min Rain = 0
KPA1 131112Z 01011KT M06/M08 A302 RMK A01 T10641082  RH  087%=      5-min Rain = 0
KPA1 131113Z 01011KT M07/M08 A3021 RMK A01 T10651082  RH  087%=      5-min Rain = 0
KPA1 131114Z 02010KT M07/M08 A3021 RMK A01 T10651082  RH  087%=      5-min Rain = 0
KPA1 131115Z 01010KT M06/M08 A3021 RMK A01 T10641082  RH  087%=      5-min Rain = 0
KPA1 131116Z 01011KT M07/M08 A3021 RMK A01 T10651082  RH  087%=      5-min Rain = 0
KPA1 131117Z 01010KT M07/M08 A3021 RMK A01 T10651083  RH  087%=      5-min Rain = 0
KPA1 131118Z 01011KT M07/M08 A3021 RMK A01 T10651082  RH  087%=      5-min Rain = 0
KPA1 131119Z 01011KT M07/M08 A3021 RMK A01 T10651082  RH  087%=      5-min Rain = 0
KPA1 131120Z 00012KT M07/M08 A3021 RMK A01 T10651083  RH  088%=      5-min Rain = 0
KPA1 131121Z 01012KT M07/M08 A3021 RMK A01 T10651083  RH  088%=      5-min Rain = 0
KPA1 131122Z 01012KT M07/M08 A3021 RMK A01 T10651082  RH  088%=      5-min Rain = 0
KPA1 131123Z 00009KT M07/M08 A3021 RMK A01 T10661083  RH  088%=      5-min Rain = 0
KPA1 131124Z 01008KT M07/M08 A3021 RMK A01 T10651082  RH  088%=      5-min Rain = 0
KPA1 131125Z 00007KT M07/M08 A3021 RMK A01 T10651082  RH  088%=      5-min Rain = 0
KPA1 131126Z 00010KT M07/M08 A3021 RMK A01 T10651082  RH  088%=      5-min Rain = 0
KPA1 131127Z 00007KT M07/M08 A3021 RMK A01 T10651081  RH  088%=      5-min Rain = 0
KPA1 131128Z 01009KT M07/M08 A3021 RMK A01 T10651081  RH  089%=      5-min Rain = 0
KPA1 131129Z 01010KT M07/M08 A3021 RMK A01 T10651081  RH  088%=      5-min Rain = 0
KPA1 131130Z 01009KT M07/M08 A3021 RMK A01 T10651081  RH  089%=      5-min Rain = 0
KPA1 131131Z 02011KT M07/M08 A3021 RMK A01 T10661082  RH  089%=      5-min Rain = 0
KPA1 131132Z 02010KT M07/M08 A302 RMK A01 T10661082  RH  089%=      5-min Rain = 0
KPA1 131133Z 02011KT M07/M08 A302 RMK A01 T10661081  RH  089%=      5-min Rain = 0
KPA1 131134Z 02011KT M07/M08 A302 RMK A01 T10671082  RH  089%=      5-min Rain = 0
KPA1 131135Z 02011KT M07/M08 A302 RMK A01 T10671082  RH  089%=      5-min Rain = 0
KPA1 131136Z 02010KT M07/M08 A302 RMK A01 T10671082  RH  089%=      5-min Rain = 0
KPA1 131137Z 02010KT M07/M08 A302 RMK A01 T10671082  RH  089%=      5-min Rain = 0
KPA1 131138Z 03011KT M07/M08 A302 RMK A01 T10681083  RH  089%=      5-min Rain = 0
KPA1 131139Z 02012KT M07/M08 A302 RMK A01 T10681084  RH  089%=      5-min Rain = 0
KPA1 131140Z 02011KT M07/M08 A302 RMK A01 T10681084  RH  089%=      5-min Rain = 0
KPA1 131141Z 02012KT M07/M08 A302 RMK A01 T10681084  RH  089%=      5-min Rain = 0
KPA1 131142Z 02010KT M07/M08 A302 RMK A01 T10691084  RH  089%=      5-min Rain = 0
KPA1 131143Z 02009KT M07/M08 A302 RMK A01 T10691084  RH  089%=      5-min Rain = 0
KPA1 131144Z 02010KT M07/M08 A302 RMK A01 T10681084  RH  089%=      5-min Rain = 0
KPA1 131145Z 02009KT M07/M08 A302 RMK A01 T10681084  RH  089%=      5-min Rain = 0
KPA1 131146Z 01011KT M07/M08 A302 RMK A01 T10691084  RH  089%=      5-min Rain = 0
KPA1 131147Z 01011KT M07/M08 A302 RMK A01 T10681083  RH  089%=      5-min Rain = 0
KPA1 131148Z 01011KT M07/M08 A302 RMK A01 T10681083  RH  089%=      5-min Rain = 0
KPA1 131149Z 01012KT M07/M08 A302 RMK A01 T10691084  RH  089%=      5-min Rain = 0
KPA1 131150Z 02010KT M07/M08 A302 RMK A01 T10691084  RH  089%=      5-min Rain = 0
KPA1 131151Z 02013KT M07/M08 A302 RMK A01 T10691084  RH  089%=      5-min Rain = 0
KPA1 131152Z 02012KT M07/M08 A302 RMK A01 T10691084  RH  089%=      5-min Rain = 0
KPA1 131153Z 02012KT M07/M09 A302 RMK A01 T10691085  RH  089%=      5-min Rain = 0
KPA1 131154Z 02013KT M07/M09 A302 RMK A01 T10701086  RH  089%=      5-min Rain = 0
KPA1 131155Z 02012KT M07/M09 A302 RMK A01 T10701086  RH  089%=      5-min Rain = 0
KPA1 131156Z 02012KT M07/M09 A302 RMK A01 T10701086  RH  088%=      5-min Rain = 0
KPA1 131157Z 02012KT M07/M09 A302 RMK A01 T10701086  RH  088%=      5-min Rain = 0
KPA1 131158Z 01010KT M07/M09 A302 RMK A01 T10701086  RH  088%=      5-min Rain = 0
KPA1 131159Z 02012KT M07/M09 A302 RMK A01 T10701087  RH  088%=      5-min Rain = 0
KPA1 131200Z 02013KT M07/M09 A302 RMK A01 T10701086  RH  088%=      5-min Rain = 0
KPA1 131201Z 02012KT M07/M09 A302 RMK A01 T10701087  RH  088%=      5-min Rain = 0
KPA1 131202Z 01013KT M07/M09 A302 RMK A01 T10701087  RH  087%=      5-min Rain = 0
KPA1 131203Z 02012KT M07/M09 A302 RMK A01 T10701087  RH  087%=      5-min Rain = 0
KPA1 131204Z 02014KT M07/M09 A302 RMK A01 T10701087  RH  088%=      5-min Rain = 0
KPA1 131205Z 02014KT M07/M09 A302 RMK A01 T10701087  RH  088%=      5-min Rain = 0
KPA1 131206Z 02012KT M07/M09 A302 RMK A01 T10701087  RH  088%=      5-min Rain = 0
KPA1 131207Z 02011KT M07/M09 A302 RMK A01 T10701086  RH  088%=      5-min Rain = 0
KPA1 131208Z 02008KT M07/M09 A302 RMK A01 T10701086  RH  088%=      5-min Rain = 0
KPA1 131209Z 01010KT M07/M09 A302 RMK A01 T10701086  RH  089%=      5-min Rain = 0
KPA1 131210Z 02012KT M07/M09 A3019 RMK A01 T10701085  RH  089%=      5-min Rain = 0
KPA1 131211Z 02014KT M07/M09 A3019 RMK A01 T10701086  RH  089%=      5-min Rain = 0
KPA1 131212Z 02014KT M07/M09 A3019 RMK A01 T10711086  RH  089%=      5-min Rain = 0
KPA1 131213Z 02012KT M07/M09 A3019 RMK A01 T10711087  RH  089%=      5-min Rain = 0
KPA1 131214Z 03013KT M07/M09 A3019 RMK A01 T10711086  RH  089%=      5-min Rain = 0
KPA1 131215Z 03014KT M07/M09 A3019 RMK A01 T10721086  RH  089%=      5-min Rain = 0
KPA1 131216Z 02014KT M07/M09 A3019 RMK A01 T10721087  RH  089%=      5-min Rain = 0
KPA1 131217Z 02014KT M07/M09 A3019 RMK A01 T10721087  RH  090%=      5-min Rain = 0
KPA1 131218Z 02012KT M07/M09 A3019 RMK A01 T10721086  RH  090%=      5-min Rain = 0
KPA1 131219Z 02009KT M07/M09 A3019 RMK A01 T10731086  RH  090%=      5-min Rain = 0
KPA1 131220Z 01012KT M07/M09 A3019 RMK A01 T10731086  RH  090%=      5-min Rain = 0
KPA1 131221Z 01012KT M07/M09 A3019 RMK A01 T10721086  RH  090%=      5-min Rain = 0
KPA1 131222Z 01011KT M07/M09 A3019 RMK A01 T10731086  RH  090%=      5-min Rain = 0
KPA1 131223Z 02011KT M07/M09 A3019 RMK A01 T10731086  RH  090%=      5-min Rain = 0
KPA1 131224Z 01011KT M07/M09 A3019 RMK A01 T10731086  RH  090%=      5-min Rain = 0
KPA1 131225Z 01012KT M07/M09 A3019 RMK A01 T10731086  RH  091%=      5-min Rain = 0
KPA1 131226Z 02013KT M07/M09 A3019 RMK A01 T10741087  RH  090%=      5-min Rain = 0
KPA1 131227Z 01014KT M07/M09 A302 RMK A01 T10741087  RH  090%=      5-min Rain = 0
KPA1 131228Z 01014KT M07/M09 A302 RMK A01 T10741088  RH  090%=      5-min Rain = 0
KPA1 131229Z 02013KT M07/M09 A302 RMK A01 T10741089  RH  089%=      5-min Rain = 0
KPA1 131230Z 02010KT M07/M09 A302 RMK A01 T10741089  RH  089%=      5-min Rain = 0
KPA1 131231Z 01011KT M07/M09 A302 RMK A01 T10741088  RH  089%=      5-min Rain = 0
KPA1 131232Z 01012KT M07/M09 A302 RMK A01 T10741088  RH  090%=      5-min Rain = 0
KPA1 131233Z 01012KT M07/M09 A302 RMK A01 T10741088  RH  090%=      5-min Rain = 0
KPA1 131234Z 02013KT M07/M09 A302 RMK A01 T10741088  RH  090%=      5-min Rain = 0
KPA1 131235Z 01012KT M08/M09 A302 RMK A01 T10751088  RH  090%=      5-min Rain = 0
KPA1 131236Z 01012KT M07/M09 A302 RMK A01 T10741088  RH  090%=      5-min Rain = 0
KPA1 131237Z 02012KT M07/M09 A302 RMK A01 T10741088  RH  090%=      5-min Rain = 0
KPA1 131238Z 01011KT M07/M09 A302 RMK A01 T10741088  RH  090%=      5-min Rain = 0
KPA1 131239Z 01012KT M07/M09 A302 RMK A01 T10741087  RH  090%=      5-min Rain = 0
KPA1 131240Z 01013KT M07/M09 A302 RMK A01 T10741088  RH  090%=      5-min Rain = 0
KPA1 131241Z 02012KT M08/M09 A302 RMK A01 T10751088  RH  090%=      5-min Rain = 0
KPA1 131242Z 02013KT M08/M09 A302 RMK A01 T10751088  RH  090%=      5-min Rain = 0
KPA1 131243Z 02011KT M08/M09 A302 RMK A01 T10751088  RH  090%=      5-min Rain = 0
KPA1 131244Z 02010KT M08/M09 A302 RMK A01 T10761089  RH  090%=      5-min Rain = 0
KPA1 131245Z 03011KT M08/M09 A302 RMK A01 T10761089  RH  091%=      5-min Rain = 0
KPA1 131246Z 03010KT M08/M09 A302 RMK A01 T10761089  RH  091%=      5-min Rain = 0
KPA1 131247Z 02010KT M08/M09 A302 RMK A01 T10761089  RH  091%=      5-min Rain = 0
KPA1 131248Z 03009KT M08/M09 A302 RMK A01 T10761089  RH  090%=      5-min Rain = 0
KPA1 131249Z 02012KT M08/M09 A302 RMK A01 T10761089  RH  090%=      5-min Rain = 0
KPA1 131250Z 02012KT M08/M09 A302 RMK A01 T10771090  RH  090%=      5-min Rain = 0
KPA1 131251Z 02010KT M08/M09 A302 RMK A01 T10771090  RH  090%=      5-min Rain = 0
KPA1 131252Z 02012KT M08/M09 A302 RMK A01 T10771090  RH  090%=      5-min Rain = 0
KPA1 131253Z 02011KT M08/M09 A302 RMK A01 T10781091  RH  090%=      5-min Rain = 0
KPA1 131254Z 02010KT M08/M09 A302 RMK A01 T10781092  RH  090%=      5-min Rain = 0
KPA1 131255Z 02009KT M08/M09 A3021 RMK A01 T10781092  RH  090%=      5-min Rain = 0
KPA1 131256Z 02009KT M08/M09 A3021 RMK A01 T10781092  RH  090%=      5-min Rain = 0
KPA1 131257Z 01010KT M08/M09 A3021 RMK A01 T10781092  RH  090%=      5-min Rain = 0
KPA1 131258Z 01010KT M08/M09 A3021 RMK A01 T10781092  RH  090%=      5-min Rain = 0
KPA1 131259Z 02008KT M08/M09 A3021 RMK A01 T10781092  RH  090%=      5-min Rain = 0
KPA1 131300Z 03010KT M08/M09 A3021 RMK A01 T10791092  RH  090%=      5-min Rain = 0
KPA1 131301Z 02012KT M08/M09 A3021 RMK A01 T10781092  RH  090%=      5-min Rain = 0
KPA1 131302Z 02012KT M08/M09 A3021 RMK A01 T10791093  RH  090%=      5-min Rain = 0
KPA1 131303Z 02011KT M08/M09 A3021 RMK A01 T10791093  RH  090%=      5-min Rain = 0
KPA1 131304Z 02009KT M08/M09 A3021 RMK A01 T10801093  RH  090%=      5-min Rain = 0
KPA1 131305Z 03009KT M08/M09 A3021 RMK A01 T10791093  RH  090%=      5-min Rain = 0
KPA1 131306Z 02010KT M08/M09 A3021 RMK A01 T10801093  RH  090%=      5-min Rain = 0
KPA1 131307Z 02010KT M08/M09 A3021 RMK A01 T10801093  RH  090%=      5-min Rain = 0
KPA1 131308Z 02011KT M08/M09 A3021 RMK A01 T10801093  RH  090%=      5-min Rain = 0
KPA1 131309Z 02009KT M08/M09 A3021 RMK A01 T10801094  RH  090%=      5-min Rain = 0
KPA1 131310Z 02009KT M08/M09 A3021 RMK A01 T10801093  RH  090%=      5-min Rain = 0
KPA1 131311Z 03007KT M08/M09 A3021 RMK A01 T10801093  RH  090%=      5-min Rain = 0
KPA1 131312Z 03009KT M08/M09 A302 RMK A01 T10801094  RH  090%=      5-min Rain = 0
KPA1 131313Z 03008KT M08/M09 A302 RMK A01 T10801094  RH  090%=      5-min Rain = 0
KPA1 131314Z 03011KT M08/M09 A3021 RMK A01 T10811094  RH  090%=      5-min Rain = 0
KPA1 131315Z 03009KT M08/M09 A3021 RMK A01 T10801094  RH  090%=      5-min Rain = 0
KPA1 131316Z 04009KT M08/M09 A3021 RMK A01 T10801093  RH  090%=      5-min Rain = 0
KPA1 131317Z 04009KT M08/M09 A3021 RMK A01 T10801093  RH  090%=      5-min Rain = 0
KPA1 131318Z 04010KT M08/M09 A3021 RMK A01 T10801093  RH  091%=      5-min Rain = 0
KPA1 131319Z 04010KT M08/M09 A3021 RMK A01 T10801093  RH  091%=      5-min Rain = 0
KPA1 131320Z 04011KT M08/M09 A3021 RMK A01 T10811093  RH  091%=      5-min Rain = 0
KPA1 131321Z 04009KT M08/M09 A3021 RMK A01 T10801094  RH  090%=      5-min Rain = 0
KPA1 131322Z 04010KT M08/M09 A3021 RMK A01 T10801094  RH  090%=      5-min Rain = 0
KPA1 131323Z 04008KT M08/M09 A3021 RMK A01 T10811094  RH  090%=      5-min Rain = 0
KPA1 131324Z 04009KT M08/M09 A3021 RMK A01 T10801093  RH  090%=      5-min Rain = 0
KPA1 131325Z 05007KT M08/M09 A3021 RMK A01 T10801093  RH  091%=      5-min Rain = 0
KPA1 131326Z 05006KT M08/M09 A3021 RMK A01 T10801093  RH  091%=      5-min Rain = 0
KPA1 131327Z 05009KT M08/M09 A3021 RMK A01 T10811093  RH  091%=      5-min Rain = 0
KPA1 131328Z 04010KT M08/M09 A3021 RMK A01 T10801093  RH  091%=      5-min Rain = 0
KPA1 131329Z 04010KT M08/M09 A3021 RMK A01 T10801093  RH  090%=      5-min Rain = 0
KPA1 131330Z 03009KT M08/M09 A3021 RMK A01 T10801093  RH  090%=      5-min Rain = 0
KPA1 131331Z 04008KT M08/M09 A3021 RMK A01 T10811094  RH  090%=      5-min Rain = 0
KPA1 131332Z 04008KT M08/M10 A3021 RMK A01 T10811095  RH  090%=      5-min Rain = 0
KPA1 131333Z 04007KT M08/M10 A3021 RMK A01 T10811096  RH  089%=      5-min Rain = 0
KPA1 131334Z 04006KT M08/M10 A3022 RMK A01 T10811096  RH  089%=      5-min Rain = 0
KPA1 131335Z 04006KT M08/M10 A3022 RMK A01 T10811096  RH  089%=      5-min Rain = 0
KPA1 131336Z 05008KT M08/M10 A3022 RMK A01 T10811096  RH  089%=      5-min Rain = 0
KPA1 131337Z 05008KT M08/M10 A3022 RMK A01 T10811098  RH  088%=      5-min Rain = 0
KPA1 131338Z 04007KT M08/M10 A3022 RMK A01 T10811099  RH  087%=      5-min Rain = 0
KPA1 131339Z 05006KT M08/M10 A3022 RMK A01 T10811100  RH  087%=      5-min Rain = 0
KPA1 131340Z 05006KT M08/M10 A3022 RMK A01 T10811100  RH  086%=      5-min Rain = 0
KPA1 131341Z 04006KT M08/M10 A3023 RMK A01 T10811100  RH  086%=      5-min Rain = 0
KPA1 131342Z 05006KT M08/M10 A3023 RMK A01 T10811100  RH  086%=      5-min Rain = 0
KPA1 131343Z 05006KT M08/M10 A3023 RMK A01 T10811100  RH  086%=      5-min Rain = 0
KPA1 131344Z 05006KT M08/M10 A3023 RMK A01 T10811100  RH  087%=      5-min Rain = 0
KPA1 131345Z 06006KT M08/M10 A3023 RMK A01 T10811099  RH  087%=      5-min Rain = 0
KPA1 131346Z 05006KT M08/M10 A3023 RMK A01 T10811099  RH  087%=      5-min Rain = 0
KPA1 131347Z 05007KT M08/M10 A3023 RMK A01 T10811099  RH  087%=      5-min Rain = 0
KPA1 131348Z 05007KT M08/M10 A3023 RMK A01 T10811099  RH  087%=      5-min Rain = 0
KPA1 131349Z 05007KT M08/M10 A3023 RMK A01 T10811098  RH  087%=      5-min Rain = 0
KPA1 131350Z 05007KT M08/M10 A3023 RMK A01 T10811098  RH  087%=      5-min Rain = 0
KPA1 131351Z 05007KT M08/M10 A3023 RMK A01 T10811099  RH  087%=      5-min Rain = 0
KPA1 131352Z 04007KT M08/M10 A3023 RMK A01 T10811099  RH  087%=      5-min Rain = 0
KPA1 131353Z 04007KT M08/M10 A3023 RMK A01 T10801099  RH  087%=      5-min Rain = 0
KPA1 131354Z 04007KT M08/M10 A3024 RMK A01 T10801099  RH  087%=      5-min Rain = 0
KPA1 131355Z 05008KT M08/M10 A3024 RMK A01 T10801099  RH  087%=      5-min Rain = 0
KPA1 131356Z 04008KT M08/M10 A3023 RMK A01 T10811099  RH  086%=      5-min Rain = 0
KPA1 131357Z 03007KT M08/M10 A3023 RMK A01 T10801099  RH  086%=      5-min Rain = 0
KPA1 131358Z 04009KT M08/M10 A3023 RMK A01 T10801099  RH  086%=      5-min Rain = 0
KPA1 131359Z 04009KT M08/M10 A3023 RMK A01 T10801099  RH  086%=      5-min Rain = 0
KPA1 131400Z 04008KT M08/M10 A3023 RMK A01 T10791099  RH  086%=      5-min Rain = 0
KPA1 131401Z 04008KT M08/M10 A3023 RMK A01 T10791098  RH  086%=      5-min Rain = 0
KPA1 131402Z 04009KT M08/M10 A3023 RMK A01 T10791098  RH  086%=      5-min Rain = 0
KPA1 131403Z 04008KT M08/M10 A3023 RMK A01 T10791099  RH  086%=      5-min Rain = 0
KPA1 131404Z 04008KT M08/M10 A3023 RMK A01 T10801099  RH  086%=      5-min Rain = 0
KPA1 131405Z 04008KT M08/M10 A3023 RMK A01 T10801099  RH  086%=      5-min Rain = 0
KPA1 131406Z 04008KT M08/M10 A3023 RMK A01 T10801099  RH  086%=      5-min Rain = 0
KPA1 131407Z 03007KT M08/M10 A3023 RMK A01 T10811099  RH  086%=      5-min Rain = 0
KPA1 131408Z 03008KT M08/M10 A3024 RMK A01 T10801099  RH  087%=      5-min Rain = 0
KPA1 131409Z 04007KT M08/M10 A3024 RMK A01 T10801098  RH  087%=      5-min Rain = 0
KPA1 131410Z 04007KT M08/M10 A3024 RMK A01 T10801098  RH  087%=      5-min Rain = 0
KPA1 131411Z 05006KT M08/M10 A3024 RMK A01 T10801098  RH  087%=      5-min Rain = 0
KPA1 131412Z 05006KT M08/M10 A3024 RMK A01 T10791097  RH  087%=      5-min Rain = 0
KPA1 131413Z 05006KT M08/M10 A3024 RMK A01 T10791098  RH  087%=      5-min Rain = 0
KPA1 131414Z 05005KT M08/M10 A3024 RMK A01 T10801098  RH  087%=      5-min Rain = 0
KPA1 131415Z 06007KT M08/M10 A3024 RMK A01 T10791097  RH  087%=      5-min Rain = 0
KPA1 131416Z 07006KT M08/M10 A3024 RMK A01 T10791097  RH  087%=      5-min Rain = 0
KPA1 131417Z 07008KT M08/M10 A3024 RMK A01 T10791098  RH  086%=      5-min Rain = 0
KPA1 131418Z 07008KT M08/M10 A3024 RMK A01 T10781099  RH  085%=      5-min Rain = 0
KPA1 131419Z 06006KT M08/M10 A3024 RMK A01 T10791100  RH  085%=      5-min Rain = 0
KPA1 131420Z 06006KT M08/M10 A3024 RMK A01 T10791100  RH  085%=      5-min Rain = 0
KPA1 131421Z 07006KT M08/M10 A3025 RMK A01 T10791100  RH  084%=      5-min Rain = 0
KPA1 131422Z 06006KT M08/M10 A3025 RMK A01 T10781101  RH  084%=      5-min Rain = 0
KPA1 131423Z 05006KT M08/M10 A3025 RMK A01 T10781101  RH  084%=      5-min Rain = 0
KPA1 131424Z 05006KT M08/M10 A3025 RMK A01 T10781100  RH  084%=      5-min Rain = 0
KPA1 131425Z 05004KT M08/M10 A3025 RMK A01 T10781101  RH  084%=      5-min Rain = 0
KPA1 131426Z 06004KT M08/M10 A3025 RMK A01 T10781100  RH  084%=      5-min Rain = 0
KPA1 131427Z 08006KT M08/M10 A3025 RMK A01 T10771098  RH  085%=      5-min Rain = 0
KPA1 131428Z 06006KT M08/M10 A3025 RMK A01 T10771098  RH  085%=      5-min Rain = 0
KPA1 131429Z 07007KT M08/M10 A3025 RMK A01 T10761098  RH  084%=      5-min Rain = 0
KPA1 131430Z 06006KT M08/M10 A3025 RMK A01 T10771099  RH  084%=      5-min Rain = 0
KPA1 131431Z 07006KT M08/M10 A3025 RMK A01 T10771101  RH  083%=      5-min Rain = 0
KPA1 131432Z 06005KT M08/M10 A3026 RMK A01 T10781102  RH  083%=      5-min Rain = 0
KPA1 131433Z 07006KT M08/M10 A3026 RMK A01 T10791102  RH  083%=      5-min Rain = 0
KPA1 131434Z 07004KT M08/M10 A3026 RMK A01 T10791102  RH  084%=      5-min Rain = 0
KPA1 131435Z 08004KT M08/M10 A3026 RMK A01 T10791101  RH  084%=      5-min Rain = 0
KPA1 131436Z 09003KT M08/M10 A3026 RMK A01 T10791100  RH  085%=      5-min Rain = 0
KPA1 131437Z 10003KT M08/M10 A3026 RMK A01 T10781099  RH  085%=      5-min Rain = 0
KPA1 131438Z 10003KT M08/M10 A3026 RMK A01 T10781098  RH  085%=      5-min Rain = 0
KPA1 131439Z 08004KT M08/M10 A3026 RMK A01 T10771099  RH  084%=      5-min Rain = 0
KPA1 131440Z 07005KT M08/M10 A3026 RMK A01 T10781099  RH  085%=      5-min Rain = 0
KPA1 131441Z 07004KT M08/M10 A3026 RMK A01 T10781100  RH  085%=      5-min Rain = 0
KPA1 131442Z 07004KT M08/M10 A3026 RMK A01 T10781100  RH  084%=      5-min Rain = 0
KPA1 131443Z 08003KT M08/M10 A3026 RMK A01 T10781101  RH  084%=      5-min Rain = 0
KPA1 131444Z 10004KT M08/M10 A3026 RMK A01 T10791100  RH  085%=      5-min Rain = 0
KPA1 131445Z 10004KT M08/M10 A3026 RMK A01 T10781099  RH  085%=      5-min Rain = 0
KPA1 131446Z 10004KT M08/M10 A3026 RMK A01 T10771099  RH  085%=      5-min Rain = 0
KPA1 131447Z 11005KT M08/M10 A3026 RMK A01 T10771098  RH  085%=      5-min Rain = 0
KPA1 131448Z 09005KT M08/M10 A3026 RMK A01 T10761097  RH  085%=      5-min Rain = 0
KPA1 131449Z 09003KT M08/M10 A3026 RMK A01 T10751097  RH  085%=      5-min Rain = 0
KPA1 131450Z 10003KT M08/M10 A3026 RMK A01 T10751097  RH  085%=      5-min Rain = 0
KPA1 131451Z 10003KT M08/M10 A3027 RMK A01 T10751097  RH  084%=      5-min Rain = 0
KPA1 131452Z 11003KT M08/M10 A3027 RMK A01 T10751096  RH  085%=      5-min Rain = 0
KPA1 131453Z 07003KT M08/M10 A3027 RMK A01 T10751097  RH  084%=      5-min Rain = 0
KPA1 131454Z 08003KT M07/M10 A3027 RMK A01 T10741096  RH  084%=      5-min Rain = 0
KPA1 131455Z 08005KT M08/M10 A3027 RMK A01 T10751096  RH  084%=      5-min Rain = 0
KPA1 131456Z 08006KT M08/M10 A3027 RMK A01 T10751097  RH  084%=      5-min Rain = 0
KPA1 131457Z 08005KT M07/M10 A3027 RMK A01 T10741098  RH  083%=      5-min Rain = 0
KPA1 131458Z 07005KT M08/M10 A3026 RMK A01 T10751100  RH  082%=      5-min Rain = 0
KPA1 131459Z 06005KT M08/M10 A3026 RMK A01 T10751100  RH  082%=      5-min Rain = 0
KPA1 131500Z 06006KT M08/M10 A3026 RMK A01 T10751101  RH  082%=      5-min Rain = 0
KPA1 131501Z 08005KT M08/M10 A3026 RMK A01 T10751101  RH  082%=      5-min Rain = 0
KPA1 131502Z 08007KT M07/M10 A3026 RMK A01 T10741100  RH  082%=      5-min Rain = 0
KPA1 131503Z 08007KT M08/M10 A3026 RMK A01 T10751101  RH  082%=      5-min Rain = 0
KPA1 131504Z 07007KT M08/M10 A3026 RMK A01 T10751101  RH  081%=      5-min Rain = 0
KPA1 131505Z 05005KT M07/M10 A3026 RMK A01 T10741100  RH  082%=      5-min Rain = 0
KPA1 131506Z 06005KT M07/M10 A3027 RMK A01 T10741101  RH  081%=      5-min Rain = 0
KPA1 131507Z 07005KT M07/M10 A3027 RMK A01 T10741101  RH  081%=      5-min Rain = 0
KPA1 131508Z 05007KT M07/M10 A3027 RMK A01 T10741102  RH  081%=      5-min Rain = 0
KPA1 131509Z 06006KT M07/M10 A3027 RMK A01 T10741101  RH  081%=      5-min Rain = 0
KPA1 131510Z 06006KT M08/M10 A3027 RMK A01 T10751102  RH  081%=      5-min Rain = 0
KPA1 131511Z 05005KT M08/M10 A3027 RMK A01 T10751103  RH  080%=      5-min Rain = 0
KPA1 131512Z 04004KT M08/M10 A3027 RMK A01 T10751104  RH  080%=      5-min Rain = 0
KPA1 131513Z 05005KT M08/M10 A3027 RMK A01 T10751102  RH  081%=      5-min Rain = 0
KPA1 131514Z 06006KT M08/M10 A3027 RMK A01 T10751103  RH  081%=      5-min Rain = 0
KPA1 131515Z 06006KT M07/M10 A3027 RMK A01 T10741102  RH  081%=      5-min Rain = 0
KPA1 131516Z 08006KT M07/M10 A3027 RMK A01 T10741102  RH  081%=      5-min Rain = 0
KPA1 131517Z 07008KT M07/M10 A3027 RMK A01 T10741101  RH  081%=      5-min Rain = 0
KPA1 131518Z 07008KT M07/M10 A3027 RMK A01 T10731102  RH  080%=      5-min Rain = 0
KPA1 131519Z 06007KT M07/M10 A3027 RMK A01 T10731103  RH  080%=      5-min Rain = 0
KPA1 131520Z 07006KT M07/M10 A3027 RMK A01 T10731103  RH  080%=      5-min Rain = 0
KPA1 131521Z 06006KT M07/M10 A3027 RMK A01 T10731102  RH  080%=      5-min Rain = 0
KPA1 131522Z 07004KT M07/M10 A3027 RMK A01 T10731102  RH  080%=      5-min Rain = 0
KPA1 131523Z 07005KT M07/M10 A3027 RMK A01 T10741103  RH  080%=      5-min Rain = 0
KPA1 131524Z 06005KT M07/M10 A3027 RMK A01 T10731101  RH  080%=      5-min Rain = 0
KPA1 131525Z 07005KT M07/M10 A3027 RMK A01 T10711099  RH  081%=      5-min Rain = 0
KPA1 131526Z 05005KT M07/M10 A3027 RMK A01 T10721102  RH  079%=      5-min Rain = 0
KPA1 131527Z 07005KT M07/M10 A3027 RMK A01 T10721101  RH  080%=      5-min Rain = 0
KPA1 131528Z 07005KT M07/M10 A3027 RMK A01 T10711099  RH  080%=      5-min Rain = 0
KPA1 131529Z 06006KT M07/M10 A3027 RMK A01 T10711100  RH  080%=      5-min Rain = 0
KPA1 131530Z 07005KT M07/M10 A3027 RMK A01 T10711102  RH  079%=      5-min Rain = 0
KPA1 131531Z 07004KT M07/M10 A3027 RMK A01 T10721103  RH  079%=      5-min Rain = 0
KPA1 131532Z 06005KT M07/M10 A3027 RMK A01 T10731104  RH  079%=      5-min Rain = 0
KPA1 131533Z 06006KT M07/M10 A3027 RMK A01 T10721103  RH  079%=      5-min Rain = 0
KPA1 131534Z 05006KT M07/M10 A3027 RMK A01 T10721102  RH  080%=      5-min Rain = 0
KPA1 131535Z 05005KT M07/M10 A3027 RMK A01 T10721102  RH  079%=      5-min Rain = 0
KPA1 131536Z 05003KT M07/M10 A3027 RMK A01 T10721102  RH  079%=      5-min Rain = 0
KPA1 131537Z 04005KT M07/M10 A3027 RMK A01 T10711099  RH  081%=      5-min Rain = 0
KPA1 131538Z 05004KT M07/M10 A3027 RMK A01 T10711099  RH  081%=      5-min Rain = 0
KPA1 131539Z 05005KT M07/M10 A3027 RMK A01 T10701098  RH  081%=      5-min Rain = 0
KPA1 131540Z 06005KT M07/M10 A3027 RMK A01 T10701099  RH  080%=      5-min Rain = 0
KPA1 131541Z 07005KT M07/M10 A3028 RMK A01 T10711101  RH  079%=      5-min Rain = 0
KPA1 131542Z 05005KT M07/M10 A3027 RMK A01 T10721101  RH  079%=      5-min Rain = 0
KPA1 131543Z 06006KT M07/M10 A3027 RMK A01 T10721101  RH  080%=      5-min Rain = 0
KPA1 131544Z 08005KT M07/M10 A3027 RMK A01 T10711099  RH  080%=      5-min Rain = 0
KPA1 131545Z 08004KT M07/M10 A3027 RMK A01 T10711100  RH  079%=      5-min Rain = 0
KPA1 131546Z 09004KT M07/M10 A3027 RMK A01 T10711100  RH  079%=      5-min Rain = 0
KPA1 131547Z 08005KT M07/M10 A3027 RMK A01 T10701100  RH  079%=      5-min Rain = 0
KPA1 131548Z 06006KT M07/M10 A3027 RMK A01 T10701100  RH  079%=      5-min Rain = 0
KPA1 131549Z 05006KT M07/M10 A3027 RMK A01 T10701100  RH  079%=      5-min Rain = 0
KPA1 131550Z 05005KT M07/M10 A3027 RMK A01 T10701099  RH  080%=      5-min Rain = 0
KPA1 131551Z 05005KT M07/M10 A3027 RMK A01 T10701100  RH  079%=      5-min Rain = 0
KPA1 131552Z 05005KT M07/M10 A3027 RMK A01 T10711100  RH  080%=      5-min Rain = 0
KPA1 131553Z 06006KT M07/M10 A3027 RMK A01 T10711101  RH  079%=      5-min Rain = 0
KPA1 131554Z 04006KT M07/M10 A3027 RMK A01 T10711101  RH  079%=      5-min Rain = 0
KPA1 131555Z 05005KT M07/M10 A3027 RMK A01 T10711100  RH  080%=      5-min Rain = 0
KPA1 131556Z 06004KT M07/M10 A3027 RMK A01 T10701099  RH  080%=      5-min Rain = 0
KPA1 131557Z 05006KT M07/M10 A3027 RMK A01 T10701100  RH  079%=      5-min Rain = 0
KPA1 131558Z 05006KT M07/M10 A3027 RMK A01 T10691098  RH  080%=      5-min Rain = 0
KPA1 131559Z 05005KT M07/M10 A3027 RMK A01 T10691098  RH  080%=      5-min Rain = 0
KPA1 131600Z 05007KT M07/M10 A3027 RMK A01 T10691099  RH  079%=      5-min Rain = 0
KPA1 131601Z 05006KT M07/M10 A3027 RMK A01 T10691099  RH  079%=      5-min Rain = 0
KPA1 131602Z 05007KT M07/M10 A3027 RMK A01 T10691098  RH  079%=      5-min Rain = 0
KPA1 131603Z 07006KT M07/M10 A3027 RMK A01 T10681097  RH  080%=      5-min Rain = 0
KPA1 131604Z 06005KT M07/M10 A3027 RMK A01 T10671095  RH  080%=      5-min Rain = 0
KPA1 131605Z 07005KT M07/M10 A3027 RMK A01 T10681097  RH  080%=      5-min Rain = 0
KPA1 131606Z 07005KT M07/M10 A3027 RMK A01 T10681097  RH  080%=      5-min Rain = 0
KPA1 131607Z 06003KT M07/M10 A3027 RMK A01 T10681098  RH  080%=      5-min Rain = 0
KPA1 131608Z 06004KT M07/M10 A3027 RMK A01 T10691099  RH  079%=      5-min Rain = 0
KPA1 131609Z 07004KT M07/M10 A3027 RMK A01 T10691099  RH  079%=      5-min Rain = 0
KPA1 131610Z 05006KT M07/M10 A3027 RMK A01 T10681097  RH  080%=      5-min Rain = 0
KPA1 131611Z 05006KT M07/M10 A3027 RMK A01 T10671096  RH  080%=      5-min Rain = 0
KPA1 131612Z 06005KT M07/M10 A3027 RMK A01 T10671098  RH  079%=      5-min Rain = 0
KPA1 131613Z 06004KT M07/M10 A3027 RMK A01 T10671097  RH  079%=      5-min Rain = 0
KPA1 131614Z 05004KT M07/M10 A3027 RMK A01 T10671097  RH  079%=      5-min Rain = 0
KPA1 131615Z 05005KT M07/M09 A3027 RMK A01 T10651094  RH  080%=      5-min Rain = 0
KPA1 131616Z 05004KT M06/M09 A3027 RMK A01 T10641094  RH  079%=      5-min Rain = 0
KPA1 131617Z 05004KT M07/M10 A3027 RMK A01 T10651096  RH  078%=      5-min Rain = 0
KPA1 131618Z 08005KT M07/M10 A3027 RMK A01 T10651096  RH  079%=      5-min Rain = 0
KPA1 131619Z 09004KT M07/M10 A3028 RMK A01 T10661096  RH  079%=      5-min Rain = 0
KPA1 131620Z 07003KT M07/M10 A3028 RMK A01 T10651095  RH  079%=      5-min Rain = 0
KPA1 131621Z 05004KT M07/M09 A3028 RMK A01 T10651094  RH  080%=      5-min Rain = 0
KPA1 131622Z 04004KT M07/M10 A3028 RMK A01 T10651095  RH  079%=      5-min Rain = 0
KPA1 131623Z 02003KT M07/M10 A3028 RMK A01 T10661097  RH  078%=      5-min Rain = 0
KPA1 131624Z 02002KT M07/M10 A3028 RMK A01 T10671098  RH  078%=      5-min Rain = 0
KPA1 131625Z 03001KT M07/M10 A3028 RMK A01 T10681098  RH  079%=      5-min Rain = 0
KPA1 131626Z 07003KT M07/M10 A3028 RMK A01 T10671096  RH  080%=      5-min Rain = 0
KPA1 131627Z 06003KT M07/M10 A3028 RMK A01 T10661095  RH  080%=      5-min Rain = 0
KPA1 131628Z 05005KT M07/M10 A3028 RMK A01 T10651095  RH  080%=      5-min Rain = 0
KPA1 131629Z 05005KT M07/M10 A3028 RMK A01 T10661096  RH  079%=      5-min Rain = 0
KPA1 131630Z 05004KT M07/M10 A3028 RMK A01 T10661096  RH  079%=      5-min Rain = 0
KPA1 131631Z 06002KT M07/M10 A3028 RMK A01 T10661097  RH  079%=      5-min Rain = 0
KPA1 131632Z 05002KT M07/M10 A3028 RMK A01 T10671098  RH  078%=      5-min Rain = 0
KPA1 131633Z 05003KT M07/M10 A3028 RMK A01 T10671097  RH  079%=      5-min Rain = 0
KPA1 131634Z 07004KT M07/M09 A3028 RMK A01 T10651094  RH  080%=      5-min Rain = 0
KPA1 131635Z 06005KT M06/M10 A3028 RMK A01 T10641095  RH  079%=      5-min Rain = 0
KPA1 131636Z 08005KT M06/M10 A3028 RMK A01 T10641096  RH  078%=      5-min Rain = 0
KPA1 131637Z 08004KT M07/M10 A3028 RMK A01 T10651096  RH  079%=      5-min Rain = 0
KPA1 131638Z 07002KT M06/M10 A3028 RMK A01 T10641095  RH  079%=      5-min Rain = 0
KPA1 131639Z 08003KT M06/M09 A3028 RMK A01 T10641094  RH  079%=      5-min Rain = 0
KPA1 131640Z 08001KT M06/M10 A3028 RMK A01 T10641096  RH  078%=      5-min Rain = 0
KPA1 131641Z 07002KT M07/M10 A3029 RMK A01 T10651097  RH  078%=      5-min Rain = 0
KPA1 131642Z 06004KT M06/M10 A3029 RMK A01 T10641095  RH  079%=      5-min Rain = 0
KPA1 131643Z 06003KT M06/M10 A3029 RMK A01 T10641095  RH  079%=      5-min Rain = 0
KPA1 131644Z 06003KT M07/M10 A3029 RMK A01 T10651096  RH  079%=      5-min Rain = 0
KPA1 131645Z 04003KT M07/M10 A3029 RMK A01 T10651095  RH  079%=      5-min Rain = 0
KPA1 131646Z 03003KT M06/M10 A3029 RMK A01 T10641095  RH  079%=      5-min Rain = 0
KPA1 131647Z 03001KT M07/M10 A3029 RMK A01 T10651096  RH  079%=      5-min Rain = 0
KPA1 131648Z 04001KT M07/M10 A3028 RMK A01 T10651095  RH  079%=      5-min Rain = 0
KPA1 131649Z 02003KT M06/M09 A3028 RMK A01 T10631092  RH  080%=      5-min Rain = 0
KPA1 131650Z 02002KT M06/M09 A3028 RMK A01 T10621091  RH  080%=      5-min Rain = 0
KPA1 131651Z 02002KT M06/M09 A3029 RMK A01 T10611090  RH  080%=      5-min Rain = 0
KPA1 131652Z 03003KT M06/M09 A3029 RMK A01 T10601089  RH  080%=      5-min Rain = 0
KPA1 131653Z 03003KT M06/M09 A3029 RMK A01 T10601091  RH  079%=      5-min Rain = 0
KPA1 131654Z 07003KT M06/M09 A3029 RMK A01 T10611092  RH  078%=      5-min Rain = 0
KPA1 131655Z 08003KT M06/M09 A3029 RMK A01 T10611092  RH  078%=      5-min Rain = 0
KPA1 131656Z 07003KT M06/M09 A3029 RMK A01 T10601092  RH  078%=      5-min Rain = 0
KPA1 131657Z 07002KT M06/M09 A3029 RMK A01 T10611094  RH  077%=      5-min Rain = 0
KPA1 131658Z 07004KT M06/M09 A3029 RMK A01 T10611094  RH  077%=      5-min Rain = 0
KPA1 131659Z 08003KT M06/M09 A3029 RMK A01 T10621094  RH  078%=      5-min Rain = 0
KPA1 131700Z 07002KT M06/M09 A3029 RMK A01 T10611093  RH  078%=      5-min Rain = 0
KPA1 131701Z 08002KT M06/M09 A3029 RMK A01 T10621093  RH  078%=      5-min Rain = 0
KPA1 131702Z 08002KT M06/M09 A3029 RMK A01 T10611092  RH  079%=      5-min Rain = 0
KPA1 131703Z 10002KT M06/M09 A3029 RMK A01 T10611092  RH  079%=      5-min Rain = 0
KPA1 131704Z 14002KT M06/M09 A3029 RMK A01 T10601090  RH  080%=      5-min Rain = 0
KPA1 131705Z 13002KT M06/M09 A3029 RMK A01 T10591091  RH  078%=      5-min Rain = 0
KPA1 131706Z 12002KT M06/M09 A3028 RMK A01 T10591093  RH  077%=      5-min Rain = 0
KPA1 131707Z 13001KT M06/M09 A3028 RMK A01 T10591093  RH  077%=      5-min Rain = 0
KPA1 131708Z 08001KT M06/M09 A3028 RMK A01 T10591093  RH  077%=      5-min Rain = 0
KPA1 131709Z 08004KT M06/M09 A3028 RMK A01 T10591090  RH  079%=      5-min Rain = 0
KPA1 131710Z 08004KT M06/M09 A3028 RMK A01 T10581091  RH  078%=      5-min Rain = 0
KPA1 131711Z 08004KT M06/M09 A3028 RMK A01 T10601093  RH  078%=      5-min Rain = 0
KPA1 131712Z 07003KT M06/M09 A3028 RMK A01 T10611092  RH  079%=      5-min Rain = 0
KPA1 131713Z 07002KT M06/M09 A3028 RMK A01 T10611091  RH  079%=      5-min Rain = 0
KPA1 131714Z 09002KT M06/M09 A3028 RMK A01 T10611092  RH  079%=      5-min Rain = 0
KPA1 131715Z 13002KT M06/M09 A3028 RMK A01 T10611091  RH  079%=      5-min Rain = 0
KPA1 131716Z 10003KT M06/M09 A3028 RMK A01 T10601090  RH  079%=      5-min Rain = 0
KPA1 131717Z 09003KT M06/M09 A3028 RMK A01 T10581089  RH  079%=      5-min Rain = 0
KPA1 131718Z 12004KT M06/M09 A3028 RMK A01 T10581089  RH  079%=      5-min Rain = 0
KPA1 131719Z 09004KT M06/M09 A3028 RMK A01 T10581090  RH  078%=      5-min Rain = 0
KPA1 131720Z 07004KT M06/M09 A3028 RMK A01 T10571089  RH  079%=      5-min Rain = 0
KPA1 131721Z 07004KT M06/M09 A3028 RMK A01 T10571088  RH  079%=      5-min Rain = 0
KPA1 131722Z 07003KT M06/M09 A3028 RMK A01 T10571089  RH  078%=      5-min Rain = 0
KPA1 131723Z 10004KT M06/M09 A3028 RMK A01 T10581090  RH  078%=      5-min Rain = 0
KPA1 131724Z 11003KT M06/M09 A3028 RMK A01 T10571088  RH  079%=      5-min Rain = 0
KPA1 131725Z 13003KT M06/M09 A3028 RMK A01 T10561087  RH  079%=      5-min Rain = 0
KPA1 131726Z 15003KT M06/M09 A3028 RMK A01 T10551087  RH  078%=      5-min Rain = 0
KPA1 131727Z 13002KT M06/M09 A3028 RMK A01 T10551090  RH  076%=      5-min Rain = 0
KPA1 131728Z 11003KT M06/M09 A3028 RMK A01 T10561091  RH  076%=      5-min Rain = 0
KPA1 131729Z 10003KT M06/M09 A3028 RMK A01 T10551089  RH  077%=      5-min Rain = 0
KPA1 131730Z 10004KT M06/M09 A3028 RMK A01 T10551088  RH  078%=      5-min Rain = 0
KPA1 131731Z 09005KT M06/M09 A3028 RMK A01 T10551087  RH  078%=      5-min Rain = 0
KPA1 131732Z 08003KT M06/M09 A3028 RMK A01 T10551088  RH  078%=      5-min Rain = 0
KPA1 131733Z 07002KT M06/M09 A3028 RMK A01 T10571090  RH  077%=      5-min Rain = 0
KPA1 131734Z 07002KT M06/M09 A3028 RMK A01 T10571091  RH  077%=      5-min Rain = 0
KPA1 131735Z 09005KT M06/M09 A3028 RMK A01 T10561087  RH  079%=      5-min Rain = 0
KPA1 131736Z 10004KT M06/M09 A3028 RMK A01 T10551087  RH  078%=      5-min Rain = 0
KPA1 131737Z 10004KT M06/M09 A3028 RMK A01 T10551089  RH  077%=      5-min Rain = 0
KPA1 131738Z 09003KT M06/M09 A3027 RMK A01 T10561091  RH  076%=      5-min Rain = 0
KPA1 131739Z 10004KT M06/M09 A3027 RMK A01 T10561091  RH  077%=      5-min Rain = 0
KPA1 131740Z 11003KT M06/M09 A3027 RMK A01 T10571090  RH  077%=      5-min Rain = 0
KPA1 131741Z 13004KT M06/M09 A3027 RMK A01 T10561089  RH  078%=      5-min Rain = 0
KPA1 131742Z 14003KT M06/M09 A3027 RMK A01 T10551089  RH  077%=      5-min Rain = 0
KPA1 131743Z 15001KT M06/M09 A3027 RMK A01 T10551089  RH  077%=      5-min Rain = 0
KPA1 131744Z 10002KT M05/M09 A3027 RMK A01 T10531086  RH  078%=      5-min Rain = 0
KPA1 131745Z 07004KT M05/M09 A3027 RMK A01 T10531087  RH  077%=      5-min Rain = 0
KPA1 131746Z 07004KT M05/M09 A3027 RMK A01 T10531086  RH  077%=      5-min Rain = 0
KPA1 131747Z 06002KT M05/M09 A3027 RMK A01 T10531086  RH  077%=      5-min Rain = 0
KPA1 131748Z 09004KT M05/M09 A3027 RMK A01 T10541086  RH  078%=      5-min Rain = 0
KPA1 131749Z 14005KT M05/M09 A3027 RMK A01 T10541088  RH  077%=      5-min Rain = 0
KPA1 131750Z 15004KT M05/M09 A3027 RMK A01 T10541089  RH  076%=      5-min Rain = 0
KPA1 131751Z 15004KT M05/M09 A3027 RMK A01 T10541089  RH  076%=      5-min Rain = 0
KPA1 131752Z 14004KT M05/M09 A3027 RMK A01 T10531089  RH  076%=      5-min Rain = 0
KPA1 131753Z 10005KT M05/M09 A3027 RMK A01 T10531090  RH  076%=      5-min Rain = 0
KPA1 131754Z 08004KT M05/M09 A3027 RMK A01 T10541090  RH  075%=      5-min Rain = 0
KPA1 131755Z 09005KT M05/M09 A3027 RMK A01 T10541089  RH  076%=      5-min Rain = 0
KPA1 131756Z 09004KT M05/M09 A3027 RMK A01 T10541089  RH  076%=      5-min Rain = 0
KPA1 131757Z 11003KT M05/M09 A3027 RMK A01 T10541088  RH  077%=      5-min Rain = 0
KPA1 131758Z 12004KT M05/M09 A3027 RMK A01 T10531088  RH  077%=      5-min Rain = 0
KPA1 131759Z 10004KT M05/M09 A3027 RMK A01 T10521085  RH  077%=      5-min Rain = 0
KPA1 131800Z 10005KT M05/M08 A3027 RMK A01 T10491082  RH  078%=      5-min Rain = 0
KPA1 131801Z 08004KT M05/M08 A3027 RMK A01 T10491084  RH  076%=      5-min Rain = 0
KPA1 131802Z 08004KT M05/M09 A3027 RMK A01 T10501087  RH  075%=      5-min Rain = 0
KPA1 131803Z 09006KT M05/M09 A3027 RMK A01 T10511088  RH  076%=      5-min Rain = 0
KPA1 131804Z 09006KT M05/M09 A3026 RMK A01 T10511086  RH  077%=      5-min Rain = 0
KPA1 131805Z 09006KT M05/M09 A3026 RMK A01 T10501085  RH  076%=      5-min Rain = 0
KPA1 131806Z 09005KT M05/M09 A3026 RMK A01 T10501086  RH  076%=      5-min Rain = 0
KPA1 131807Z 09003KT M05/M09 A3026 RMK A01 T10521089  RH  076%=      5-min Rain = 0
KPA1 131808Z 09004KT M05/M09 A3026 RMK A01 T10531088  RH  077%=      5-min Rain = 0
KPA1 131809Z 09004KT M05/M09 A3026 RMK A01 T10521087  RH  077%=      5-min Rain = 0
KPA1 131810Z 11004KT M05/M09 A3026 RMK A01 T10521086  RH  077%=      5-min Rain = 0
KPA1 131811Z 11004KT M05/M09 A3026 RMK A01 T10511085  RH  077%=      5-min Rain = 0
KPA1 131812Z 10005KT M05/M09 A3026 RMK A01 T10501086  RH  076%=      5-min Rain = 0
KPA1 131813Z 09004KT M05/M09 A3026 RMK A01 T10511088  RH  075%=      5-min Rain = 0
KPA1 131814Z 08003KT M05/M09 A3026 RMK A01 T10521089  RH  075%=      5-min Rain = 0
KPA1 131815Z 10005KT M05/M09 A3026 RMK A01 T10521087  RH  076%=      5-min Rain = 0
KPA1 131816Z 10006KT M05/M08 A3026 RMK A01 T10491084  RH  077%=      5-min Rain = 0
KPA1 131817Z 11007KT M05/M09 A3026 RMK A01 T10491085  RH  075%=      5-min Rain = 0
KPA1 131818Z 12006KT M05/M09 A3026 RMK A01 T10491086  RH  075%=      5-min Rain = 0
KPA1 131819Z 12006KT M05/M09 A3026 RMK A01 T10491087  RH  075%=      5-min Rain = 0
KPA1 131820Z 10005KT M05/M09 A3026 RMK A01 T10491087  RH  075%=      5-min Rain = 0
KPA1 131821Z 10005KT M05/M09 A3026 RMK A01 T10481086  RH  074%=      5-min Rain = 0
KPA1 131822Z 10004KT M05/M09 A3026 RMK A01 T10481087  RH  074%=      5-min Rain = 0
KPA1 131823Z 08005KT M05/M09 A3026 RMK A01 T10481086  RH  075%=      5-min Rain = 0
KPA1 131824Z 09006KT M05/M09 A3026 RMK A01 T10491087  RH  075%=      5-min Rain = 0
KPA1 131825Z 08007KT M05/M09 A3025 RMK A01 T10491088  RH  075%=      5-min Rain = 0
KPA1 131826Z 08006KT M05/M09 A3026 RMK A01 T10501087  RH  075%=      5-min Rain = 0
KPA1 131827Z 10005KT M05/M09 A3025 RMK A01 T10511088  RH  075%=      5-min Rain = 0
KPA1 131828Z 11008KT M05/M09 A3025 RMK A01 T10501086  RH  076%=      5-min Rain = 0
KPA1 131829Z 11006KT M05/M09 A3025 RMK A01 T10491087  RH  075%=      5-min Rain = 0
KPA1 131830Z 11004KT M05/M09 A3025 RMK A01 T10491086  RH  075%=      5-min Rain = 0
KPA1 131831Z 11005KT M05/M09 A3025 RMK A01 T10481085  RH  075%=      5-min Rain = 0
KPA1 131832Z 11006KT M05/M09 A3025 RMK A01 T10491086  RH  075%=      5-min Rain = 0
KPA1 131833Z 13006KT M05/M09 A3025 RMK A01 T10481085  RH  075%=      5-min Rain = 0
KPA1 131834Z 11005KT M05/M09 A3025 RMK A01 T10481085  RH  075%=      5-min Rain = 0
KPA1 131835Z 12006KT M05/M08 A3025 RMK A01 T10481084  RH  076%=      5-min Rain = 0
KPA1 131836Z 09006KT M05/M08 A3025 RMK A01 T10471084  RH  076%=      5-min Rain = 0
KPA1 131837Z 10006KT M05/M08 A3025 RMK A01 T10471084  RH  075%=      5-min Rain = 0
KPA1 131838Z 11004KT M05/M09 A3025 RMK A01 T10481085  RH  075%=      5-min Rain = 0
KPA1 131839Z 11006KT M05/M09 A3025 RMK A01 T10491085  RH  076%=      5-min Rain = 0
KPA1 131840Z 11007KT M05/M08 A3025 RMK A01 T10471083  RH  076%=      5-min Rain = 0
KPA1 131841Z 13007KT M05/M08 A3025 RMK A01 T10461082  RH  076%=      5-min Rain = 0
KPA1 131842Z 13007KT M04/M08 A3025 RMK A01 T10441081  RH  075%=      5-min Rain = 0
KPA1 131843Z 11006KT M04/M08 A3025 RMK A01 T10431081  RH  075%=      5-min Rain = 0
KPA1 131844Z 11007KT M04/M08 A3025 RMK A01 T10431081  RH  075%=      5-min Rain = 0
KPA1 131845Z 11007KT M05/M08 A3025 RMK A01 T10451084  RH  074%=      5-min Rain = 0
KPA1 131846Z 10007KT M05/M08 A3025 RMK A01 T10451083  RH  075%=      5-min Rain = 0
KPA1 131847Z 11009KT M05/M08 A3024 RMK A01 T10461084  RH  075%=      5-min Rain = 0
KPA1 131848Z 11007KT M05/M08 A3024 RMK A01 T10461084  RH  075%=      5-min Rain = 0
KPA1 131849Z 11009KT M05/M08 A3024 RMK A01 T10461083  RH  075%=      5-min Rain = 0
KPA1 131850Z 11008KT M05/M08 A3024 RMK A01 T10461083  RH  075%=      5-min Rain = 0
KPA1 131851Z 13008KT M05/M08 A3024 RMK A01 T10451081  RH  076%=      5-min Rain = 0
KPA1 131852Z 12008KT M04/M08 A3024 RMK A01 T10441082  RH  075%=      5-min Rain = 0
KPA1 131853Z 12008KT M04/M08 A3024 RMK A01 T10441082  RH  075%=      5-min Rain = 0
KPA1 131854Z 12009KT M04/M08 A3024 RMK A01 T10431080  RH  075%=      5-min Rain = 0
KPA1 131855Z 12008KT M04/M08 A3024 RMK A01 T10431081  RH  075%=      5-min Rain = 0
KPA1 131856Z 11008KT M04/M08 A3024 RMK A01 T10421080  RH  075%=      5-min Rain = 0
KPA1 131857Z 13010KT M04/M08 A3024 RMK A01 T10411079  RH  075%=      5-min Rain = 0
KPA1 131858Z 12010KT M04/M08 A3024 RMK A01 T10401080  RH  074%=      5-min Rain = 0
KPA1 131859Z 12009KT M04/M08 A3024 RMK A01 T10411082  RH  073%=      5-min Rain = 0
KPA1 131900Z 12007KT M04/M08 A3024 RMK A01 T10411083  RH  073%=      5-min Rain = 0
KPA1 131901Z 12006KT M04/M08 A3024 RMK A01 T10411081  RH  074%=      5-min Rain = 0
KPA1 131902Z 13007KT M04/M08 A3024 RMK A01 T10391079  RH  074%=      5-min Rain = 0
KPA1 131903Z 11009KT M04/M08 A3024 RMK A01 T10381079  RH  073%=      5-min Rain = 0
KPA1 131904Z 11009KT M04/M08 A3024 RMK A01 T10381081  RH  072%=      5-min Rain = 0
KPA1 131905Z 11008KT M04/M08 A3024 RMK A01 T10391082  RH  072%=      5-min Rain = 0
KPA1 131906Z 12008KT M04/M08 A3024 RMK A01 T10391081  RH  073%=      5-min Rain = 0
KPA1 131907Z 13006KT M04/M08 A3024 RMK A01 T10391083  RH  072%=      5-min Rain = 0
KPA1 131908Z 11005KT M04/M08 A3024 RMK A01 T10401084  RH  071%=      5-min Rain = 0
KPA1 131909Z 10007KT M04/M08 A3024 RMK A01 T10401083  RH  072%=      5-min Rain = 0
KPA1 131910Z 11004KT M04/M08 A3024 RMK A01 T10401083  RH  072%=      5-min Rain = 0
KPA1 131911Z 12006KT M04/M08 A3024 RMK A01 T10401082  RH  073%=      5-min Rain = 0
KPA1 131912Z 11007KT M04/M08 A3024 RMK A01 T10391080  RH  073%=      5-min Rain = 0
KPA1 131913Z 11006KT M04/M08 A3024 RMK A01 T10381081  RH  072%=      5-min Rain = 0
KPA1 131914Z 10009KT M04/M08 A3024 RMK A01 T10381081  RH  072%=      5-min Rain = 0
KPA1 131915Z 11007KT M04/M08 A3024 RMK A01 T10401083  RH  072%=      5-min Rain = 0
KPA1 131916Z 10006KT M04/M08 A3024 RMK A01 T10411082  RH  073%=      5-min Rain = 0
KPA1 131917Z 10006KT M04/M08 A3024 RMK A01 T10401081  RH  073%=      5-min Rain = 0
KPA1 131918Z 11005KT M04/M08 A3024 RMK A01 T10411083  RH  073%=      5-min Rain = 0
KPA1 131919Z 11007KT M04/M08 A3024 RMK A01 T10411082  RH  073%=      5-min Rain = 0
KPA1 131920Z 11008KT M04/M08 A3023 RMK A01 T10391078  RH  074%=      5-min Rain = 0
KPA1 131921Z 12007KT M04/M08 A3023 RMK A01 T10381077  RH  074%=      5-min Rain = 0
KPA1 131922Z 10008KT M04/M08 A3023 RMK A01 T10361077  RH  073%=      5-min Rain = 0
KPA1 131923Z 10008KT M04/M08 A3023 RMK A01 T10371080  RH  072%=      5-min Rain = 0
KPA1 131924Z 12009KT M04/M08 A3023 RMK A01 T10371077  RH  074%=      5-min Rain = 0
KPA1 131925Z 12008KT M04/M08 A3023 RMK A01 T10351076  RH  073%=      5-min Rain = 0
KPA1 131926Z 11008KT M03/M08 A3022 RMK A01 T10341077  RH  073%=      5-min Rain = 0
KPA1 131927Z 13009KT M03/M08 A3022 RMK A01 T10331076  RH  072%=      5-min Rain = 0
KPA1 131928Z 12009KT M03/M08 A3022 RMK A01 T10321077  RH  071%=      5-min Rain = 0
KPA1 131929Z 12007KT M03/M08 A3022 RMK A01 T10331078  RH  071%=      5-min Rain = 0
KPA1 131930Z 12007KT M03/M08 A3022 RMK A01 T10331077  RH  071%=      5-min Rain = 0
KPA1 131931Z 13007KT M03/M08 A3022 RMK A01 T10321075  RH  072%=      5-min Rain = 0
KPA1 131932Z 12009KT M03/M07 A3022 RMK A01 T10281072  RH  072%=      5-min Rain = 0
KPA1 131933Z 12008KT M03/M08 A3022 RMK A01 T10291076  RH  070%=      5-min Rain = 0
KPA1 131934Z 12009KT M03/M08 A3022 RMK A01 T10311078  RH  070%=      5-min Rain = 0
KPA1 131935Z 12008KT M03/M08 A3022 RMK A01 T10311078  RH  070%=      5-min Rain = 0
KPA1 131936Z 12008KT M03/M08 A3022 RMK A01 T10311076  RH  071%=      5-min Rain = 0
KPA1 131937Z 13006KT M03/M08 A3022 RMK A01 T10291075  RH  071%=      5-min Rain = 0
KPA1 131938Z 11006G11KT M03/M07 A3022 RMK A01 T10281074  RH  071%=      5-min Rain = 0
KPA1 131939Z 10010KT M03/M08 A3022 RMK A01 T10281075  RH  070%=      5-min Rain = 0
KPA1 131940Z 11010KT M03/M08 A3022 RMK A01 T10311078  RH  070%=      5-min Rain = 0
KPA1 131941Z 10007KT M03/M08 A3022 RMK A01 T10321078  RH  070%=      5-min Rain = 0
KPA1 131942Z 11009KT M03/M08 A3022 RMK A01 T10331076  RH  072%=      5-min Rain = 0
KPA1 131943Z 11006KT M03/M07 A3022 RMK A01 T10301072  RH  073%=      5-min Rain = 0
KPA1 131944Z 09006KT M03/M08 A3021 RMK A01 T10301075  RH  071%=      5-min Rain = 0
KPA1 131945Z 10008KT M03/M08 A3021 RMK A01 T10321077  RH  071%=      5-min Rain = 0
KPA1 131946Z 12009KT M03/M08 A3021 RMK A01 T10321075  RH  072%=      5-min Rain = 0
KPA1 131947Z 12006KT M03/M07 A3021 RMK A01 T10311074  RH  072%=      5-min Rain = 0
KPA1 131948Z 11008KT M03/M08 A3021 RMK A01 T10301075  RH  071%=      5-min Rain = 0
KPA1 131949Z 12007KT M03/M08 A3021 RMK A01 T10301076  RH  070%=      5-min Rain = 0
KPA1 131950Z 12007KT M03/M08 A3021 RMK A01 T10311076  RH  071%=      5-min Rain = 0
KPA1 131951Z 14007G12KT M03/M07 A3021 RMK A01 T10311074  RH  072%=      5-min Rain = 0
KPA1 131952Z 13008KT M03/M07 A3021 RMK A01 T10291072  RH  072%=      5-min Rain = 0
KPA1 131953Z 15006KT M03/M07 A3021 RMK A01 T10281074  RH  071%=      5-min Rain = 0
KPA1 131954Z 12008KT M03/M08 A3021 RMK A01 T10301077  RH  070%=      5-min Rain = 0
KPA1 131955Z 12006KT M03/M07 A3021 RMK A01 T10301074  RH  072%=      5-min Rain = 0
KPA1 131956Z 13008KT M03/M07 A3021 RMK A01 T10291072  RH  072%=      5-min Rain = 0
KPA1 131957Z 13007KT M03/M07 A3021 RMK A01 T10281073  RH  071%=      5-min Rain = 0
KPA1 131958Z 13006KT M03/M07 A3021 RMK A01 T10271073  RH  071%=      5-min Rain = 0
KPA1 131959Z 12008KT M03/M07 A3021 RMK A01 T10271073  RH  071%=      5-min Rain = 0
KPA1 132000Z 11006KT M03/M07 A3021 RMK A01 T10261071  RH  071%=      5-min Rain = 0
KPA1 132001Z 13007KT M03/M07 A3021 RMK A01 T10251071  RH  071%=      5-min Rain = 0
KPA1 132002Z 14005KT M03/M07 A3021 RMK A01 T10251073  RH  070%=      5-min Rain = 0
KPA1 132003Z 12006KT M03/M08 A3021 RMK A01 T10271076  RH  069%=      5-min Rain = 0
KPA1 132004Z 12004KT M03/M08 A3021 RMK A01 T10281076  RH  069%=      5-min Rain = 0
KPA1 132005Z 13005KT M03/M08 A3021 RMK A01 T10291076  RH  070%=      5-min Rain = 0
KPA1 132006Z 10005KT M03/M08 A3021 RMK A01 T10291076  RH  070%=      5-min Rain = 0
KPA1 132007Z 10006KT M03/M07 A3021 RMK A01 T10291074  RH  071%=      5-min Rain = 0
KPA1 132008Z 12006KT M03/M07 A3021 RMK A01 T10301074  RH  071%=      5-min Rain = 0
KPA1 132009Z 13004KT M03/M08 A3021 RMK A01 T10311076  RH  071%=      5-min Rain = 0
KPA1 132010Z 13004KT M03/M08 A3021 RMK A01 T10321077  RH  071%=      5-min Rain = 0
KPA1 132011Z 11004KT M03/M07 A3021 RMK A01 T10311074  RH  072%=      5-min Rain = 0
KPA1 132012Z 10003KT M03/M08 A3021 RMK A01 T10311075  RH  071%=      5-min Rain = 0
KPA1 132013Z 13005KT M03/M07 A3021 RMK A01 T10311074  RH  072%=      5-min Rain = 0
KPA1 132014Z 13007KT M03/M07 A3021 RMK A01 T10311074  RH  072%=      5-min Rain = 0
KPA1 132015Z 13005KT M03/M07 A3021 RMK A01 T10301074  RH  072%=      5-min Rain = 0
KPA1 132016Z 12003KT M03/M08 A3021 RMK A01 T10311075  RH  072%=      5-min Rain = 0
KPA1 132017Z 10003KT M03/M08 A3021 RMK A01 T10311075  RH  071%=      5-min Rain = 0
KPA1 132018Z 09004KT M03/M08 A3021 RMK A01 T10311075  RH  072%=      5-min Rain = 0
KPA1 132019Z 11006KT M03/M07 A3021 RMK A01 T10311073  RH  073%=      5-min Rain = 0
KPA1 132020Z 11006KT M03/M07 A3021 RMK A01 T10311072  RH  073%=      5-min Rain = 0
KPA1 132021Z 10008KT M03/M07 A3021 RMK A01 T10311072  RH  073%=      5-min Rain = 0
KPA1 132022Z 11008KT M03/M07 A3021 RMK A01 T10301072  RH  073%=      5-min Rain = 0
KPA1 132023Z 12006KT M03/M07 A3021 RMK A01 T10291072  RH  073%=      5-min Rain = 0
KPA1 132024Z 13006KT M03/M07 A3021 RMK A01 T10291071  RH  073%=      5-min Rain = 0
KPA1 132025Z 12005KT M03/M07 A3021 RMK A01 T10291073  RH  072%=      5-min Rain = 0
KPA1 132026Z 12004KT M03/M07 A3021 RMK A01 T10301074  RH  072%=      5-min Rain = 0
KPA1 132027Z 13005KT M03/M07 A3022 RMK A01 T10311073  RH  073%=      5-min Rain = 0
KPA1 132028Z 11006KT M03/M07 A3022 RMK A01 T10301072  RH  073%=      5-min Rain = 0
KPA1 132029Z 10006KT M03/M07 A3022 RMK A01 T10291071  RH  073%=      5-min Rain = 0
KPA1 132030Z 11005KT M03/M07 A3022 RMK A01 T10291071  RH  073%=      5-min Rain = 0
KPA1 132031Z 10005KT M03/M07 A3022 RMK A01 T10291071  RH  073%=      5-min Rain = 0
KPA1 132032Z 09004KT M03/M07 A3022 RMK A01 T10291071  RH  073%=      5-min Rain = 0
KPA1 132033Z 11005KT M03/M07 A3021 RMK A01 T10281069  RH  073%=      5-min Rain = 0
KPA1 132034Z 12007KT M03/M07 A3021 RMK A01 T10271068  RH  073%=      5-min Rain = 0
KPA1 132035Z 11008KT M03/M07 A3021 RMK A01 T10261069  RH  072%=      5-min Rain = 0
KPA1 132036Z 12008KT M03/M07 A3021 RMK A01 T10261069  RH  072%=      5-min Rain = 0
KPA1 132037Z 13009KT M03/M07 A3021 RMK A01 T10251069  RH  072%=      5-min Rain = 0
KPA1 132038Z 13008KT M03/M07 A3021 RMK A01 T10251070  RH  071%=      5-min Rain = 0
KPA1 132039Z 13007KT M02/M07 A302 RMK A01 T10241069  RH  071%=      5-min Rain = 0
KPA1 132040Z 13008KT M02/M07 A302 RMK A01 T10231068  RH  071%=      5-min Rain = 0
KPA1 132041Z 13009KT M02/M07 A302 RMK A01 T10191065  RH  071%=      5-min Rain = 0
KPA1 132042Z 13009KT M02/M07 A302 RMK A01 T10171065  RH  070%=      5-min Rain = 0
KPA1 132043Z 12009KT M02/M06 A302 RMK A01 T10151064  RH  069%=      5-min Rain = 0
KPA1 132044Z 13010KT M02/M07 A302 RMK A01 T10151066  RH  068%=      5-min Rain = 0
KPA1 132045Z 12009KT M01/M07 A302 RMK A01 T10141065  RH  068%=      5-min Rain = 0
KPA1 132046Z 12010KT M01/M06 A302 RMK A01 T10111061  RH  069%=      5-min Rain = 0
KPA1 132047Z 11010KT M01/M06 A302 RMK A01 T10111063  RH  068%=      5-min Rain = 0
KPA1 132048Z 12010KT M01/M07 A302 RMK A01 T10131065  RH  068%=      5-min Rain = 0
KPA1 132049Z 12010KT M02/M07 A302 RMK A01 T10151068  RH  067%=      5-min Rain = 0
KPA1 132050Z 13009KT M02/M07 A302 RMK A01 T10171069  RH  068%=      5-min Rain = 0
KPA1 132051Z 13009KT M02/M07 A302 RMK A01 T10181068  RH  069%=      5-min Rain = 0
KPA1 132052Z 12010KT M02/M07 A302 RMK A01 T10191068  RH  069%=      5-min Rain = 0
KPA1 132053Z 12008KT M02/M07 A302 RMK A01 T10201069  RH  069%=      5-min Rain = 0
KPA1 132054Z 13008KT M02/M07 A3021 RMK A01 T10211068  RH  070%=      5-min Rain = 0
KPA1 132055Z 12010KT M02/M07 A302 RMK A01 T10211068  RH  070%=      5-min Rain = 0
KPA1 132056Z 13009KT M02/M07 A302 RMK A01 T10201068  RH  070%=      5-min Rain = 0
KPA1 132057Z 13008KT M02/M07 A302 RMK A01 T10201069  RH  069%=      5-min Rain = 0
KPA1 132058Z 13008KT M02/M07 A302 RMK A01 T10201069  RH  069%=      5-min Rain = 0
KPA1 132059Z 14007KT M02/M07 A302 RMK A01 T10201068  RH  070%=      5-min Rain = 0
KPA1 132100Z 10008KT M02/M07 A302 RMK A01 T10181065  RH  070%=      5-min Rain = 0
KPA1 132101Z 12010KT M02/M07 A302 RMK A01 T10181065  RH  070%=      5-min Rain = 0
KPA1 132102Z 12009KT M02/M07 A302 RMK A01 T10181065  RH  070%=      5-min Rain = 0
KPA1 132103Z 12009KT M02/M07 A302 RMK A01 T10181066  RH  070%=      5-min Rain = 0
KPA1 132104Z 11007KT M02/M07 A302 RMK A01 T10181066  RH  070%=      5-min Rain = 0
KPA1 132105Z 12009KT M02/M07 A302 RMK A01 T10191065  RH  071%=      5-min Rain = 0
KPA1 132106Z 11008KT M02/M07 A302 RMK A01 T10181066  RH  070%=      5-min Rain = 0
KPA1 132107Z 11009KT M02/M07 A302 RMK A01 T10191068  RH  069%=      5-min Rain = 0
KPA1 132108Z 12009KT M02/M07 A302 RMK A01 T10181068  RH  069%=      5-min Rain = 0
KPA1 132109Z 11009KT M02/M07 A302 RMK A01 T10191069  RH  069%=      5-min Rain = 0
KPA1 132110Z 12010KT M02/M07 A302 RMK A01 T10191068  RH  069%=      5-min Rain = 0
KPA1 132111Z 12010KT M02/M07 A302 RMK A01 T10191068  RH  069%=      5-min Rain = 0
KPA1 132112Z 11009KT M02/M07 A302 RMK A01 T10191067  RH  069%=      5-min Rain = 0
KPA1 132113Z 11012KT M02/M07 A302 RMK A01 T10191068  RH  069%=      5-min Rain = 0
KPA1 132114Z 13010KT M02/M07 A302 RMK A01 T10191070  RH  068%=      5-min Rain = 0
KPA1 132115Z 13009KT M02/M07 A302 RMK A01 T10191070  RH  068%=      5-min Rain = 0
KPA1 132116Z 13009KT M02/M07 A302 RMK A01 T10191071  RH  068%=      5-min Rain = 0
KPA1 132117Z 14007KT M02/M07 A302 RMK A01 T10181071  RH  067%=      5-min Rain = 0
KPA1 132118Z 15010KT M02/M07 A302 RMK A01 T10171069  RH  068%=      5-min Rain = 0
KPA1 132119Z 13009KT M02/M07 A302 RMK A01 T10161069  RH  067%=      5-min Rain = 0
KPA1 132120Z 14008KT M02/M07 A302 RMK A01 T10161070  RH  067%=      5-min Rain = 0
KPA1 132121Z 14007KT M02/M07 A302 RMK A01 T10161071  RH  066%=      5-min Rain = 0
KPA1 132122Z 13007KT M02/M07 A302 RMK A01 T10161069  RH  067%=      5-min Rain = 0
KPA1 132123Z 13010KT M02/M07 A302 RMK A01 T10151069  RH  067%=      5-min Rain = 0
KPA1 132124Z 13011KT M02/M07 A302 RMK A01 T10151070  RH  066%=      5-min Rain = 0
KPA1 132125Z 13011KT M02/M07 A302 RMK A01 T10161071  RH  066%=      5-min Rain = 0
KPA1 132126Z 13010KT M02/M07 A302 RMK A01 T10171072  RH  066%=      5-min Rain = 0
KPA1 132127Z 13010KT M02/M07 A302 RMK A01 T10171073  RH  066%=      5-min Rain = 0
KPA1 132128Z 13011KT M02/M07 A302 RMK A01 T10171072  RH  066%=      5-min Rain = 0
KPA1 132129Z 14009KT M02/M07 A302 RMK A01 T10171072  RH  066%=      5-min Rain = 0
KPA1 132130Z 14009KT M02/M07 A302 RMK A01 T10171071  RH  066%=      5-min Rain = 0
KPA1 132131Z 13010KT M02/M07 A302 RMK A01 T10161070  RH  067%=      5-min Rain = 0
KPA1 132132Z 14009KT M02/M07 A302 RMK A01 T10161071  RH  066%=      5-min Rain = 0
KPA1 132133Z 13009KT M02/M07 A3021 RMK A01 T10161072  RH  066%=      5-min Rain = 0
KPA1 132134Z 12008KT M02/M07 A3021 RMK A01 T10171072  RH  066%=      5-min Rain = 0
KPA1 132135Z 13008KT M02/M07 A3021 RMK A01 T10171072  RH  066%=      5-min Rain = 0
KPA1 132136Z 12008KT M02/M07 A3021 RMK A01 T10171072  RH  066%=      5-min Rain = 0
KPA1 132137Z 12008KT M02/M07 A3021 RMK A01 T10171072  RH  067%=      5-min Rain = 0
KPA1 132138Z 11008KT M02/M07 A3021 RMK A01 T10171071  RH  067%=      5-min Rain = 0
KPA1 132139Z 12008KT M02/M07 A3021 RMK A01 T10171071  RH  067%=      5-min Rain = 0
KPA1 132140Z 13007KT M02/M07 A3021 RMK A01 T10171069  RH  068%=      5-min Rain = 0
KPA1 132141Z 12009KT M02/M07 A3021 RMK A01 T10161067  RH  068%=      5-min Rain = 0
KPA1 132142Z 12008KT M02/M07 A3021 RMK A01 T10151070  RH  067%=      5-min Rain = 0
KPA1 132143Z 12007KT M02/M07 A3021 RMK A01 T10161070  RH  067%=      5-min Rain = 0
KPA1 132144Z 11007KT M02/M07 A3021 RMK A01 T10161071  RH  066%=      5-min Rain = 0
KPA1 132145Z 11007KT M02/M07 A3021 RMK A01 T10171071  RH  067%=      5-min Rain = 0
KPA1 132146Z 14007KT M02/M07 A3021 RMK A01 T10171070  RH  067%=      5-min Rain = 0
KPA1 132147Z 13008KT M02/M07 A3021 RMK A01 T10171070  RH  067%=      5-min Rain = 0
KPA1 132148Z 12007KT M02/M07 A3021 RMK A01 T10171071  RH  067%=      5-min Rain = 0
KPA1 132149Z 12008KT M02/M07 A3021 RMK A01 T10171070  RH  067%=      5-min Rain = 0
KPA1 132150Z 12010KT M02/M07 A302 RMK A01 T10171069  RH  067%=      5-min Rain = 0
KPA1 132151Z 13010KT M02/M07 A302 RMK A01 T10171070  RH  067%=      5-min Rain = 0
KPA1 132152Z 13009KT M02/M07 A302 RMK A01 T10171070  RH  067%=      5-min Rain = 0
KPA1 132153Z 13009KT M02/M07 A302 RMK A01 T10171070  RH  067%=      5-min Rain = 0
KPA1 132154Z 13009KT M02/M07 A302 RMK A01 T10171070  RH  067%=      5-min Rain = 0
KPA1 132155Z 13010KT M02/M07 A302 RMK A01 T10171070  RH  067%=      5-min Rain = 0
KPA1 132156Z 13010KT M02/M07 A302 RMK A01 T10171069  RH  067%=      5-min Rain = 0
KPA1 132157Z 13011KT M02/M07 A302 RMK A01 T10161069  RH  067%=      5-min Rain = 0
KPA1 132158Z 13009KT M02/M07 A302 RMK A01 T10161070  RH  067%=      5-min Rain = 0
KPA1 132159Z 13007KT M02/M07 A302 RMK A01 T10171071  RH  067%=      5-min Rain = 0
KPA1 132200Z 13008KT M02/M07 A302 RMK A01 T10161068  RH  068%=      5-min Rain = 0
KPA1 132201Z 13008KT M02/M07 A302 RMK A01 T10151068  RH  067%=      5-min Rain = 0
KPA1 132202Z 12009KT M02/M07 A302 RMK A01 T10151068  RH  067%=      5-min Rain = 0
KPA1 132203Z 11006KT M02/M07 A302 RMK A01 T10151066  RH  068%=      5-min Rain = 0
KPA1 132204Z 12009KT M02/M07 A302 RMK A01 T10151065  RH  068%=      5-min Rain = 0
KPA1 132205Z 12009KT M01/M07 A302 RMK A01 T10141066  RH  068%=      5-min Rain = 0
KPA1 132206Z 12007KT M02/M07 A302 RMK A01 T10151069  RH  067%=      5-min Rain = 0
KPA1 132207Z 12007KT M02/M07 A302 RMK A01 T10161069  RH  067%=      5-min Rain = 0
KPA1 132208Z 12007KT M02/M07 A302 RMK A01 T10161067  RH  068%=      5-min Rain = 0
KPA1 132209Z 11008KT M02/M07 A302 RMK A01 T10151065  RH  069%=      5-min Rain = 0
KPA1 132210Z 11010KT M02/M07 A302 RMK A01 T10151066  RH  068%=      5-min Rain = 0
KPA1 132211Z 12009KT M02/M07 A302 RMK A01 T10151066  RH  068%=      5-min Rain = 0
KPA1 132212Z 11009KT M02/M07 A302 RMK A01 T10151066  RH  068%=      5-min Rain = 0
KPA1 132213Z 11009KT M02/M07 A302 RMK A01 T10151067  RH  068%=      5-min Rain = 0
KPA1 132214Z 11009KT M02/M07 A302 RMK A01 T10161067  RH  068%=      5-min Rain = 0
KPA1 132215Z 12011KT M02/M07 A302 RMK A01 T10161066  RH  069%=      5-min Rain = 0
KPA1 132216Z 12009KT M02/M07 A302 RMK A01 T10161067  RH  068%=      5-min Rain = 0
KPA1 132217Z 12010KT M02/M07 A302 RMK A01 T10161068  RH  068%=      5-min Rain = 0
KPA1 132218Z 12009KT M02/M07 A302 RMK A01 T10161069  RH  067%=      5-min Rain = 0
KPA1 132219Z 12009KT M02/M07 A302 RMK A01 T10161068  RH  068%=      5-min Rain = 0
KPA1 132220Z 12007KT M02/M07 A302 RMK A01 T10161068  RH  068%=      5-min Rain = 0
KPA1 132221Z 11007KT M02/M06 A302 RMK A01 T10151064  RH  069%=      5-min Rain = 0
KPA1 132222Z 10008KT M02/M07 A302 RMK A01 T10151065  RH  069%=      5-min Rain = 0
KPA1 132223Z 11008KT M02/M07 A302 RMK A01 T10151066  RH  068%=      5-min Rain = 0
KPA1 132224Z 11008KT M02/M07 A302 RMK A01 T10151067  RH  068%=      5-min Rain = 0
KPA1 132225Z 11009KT M02/M07 A302 RMK A01 T10151065  RH  069%=      5-min Rain = 0
KPA1 132226Z 11011KT M02/M07 A302 RMK A01 T10151066  RH  068%=      5-min Rain = 0
KPA1 132227Z 11009KT M02/M07 A302 RMK A01 T10151067  RH  068%=      5-min Rain = 0
KPA1 132228Z 10009KT M02/M07 A302 RMK A01 T10161068  RH  068%=      5-min Rain = 0
KPA1 132229Z 11009KT M02/M07 A302 RMK A01 T10161066  RH  069%=      5-min Rain = 0
KPA1 132230Z 12008KT M02/M07 A302 RMK A01 T10161065  RH  069%=      5-min Rain = 0
KPA1 132231Z 12008KT M02/M07 A302 RMK A01 T10161067  RH  068%=      5-min Rain = 0
KPA1 132232Z 12010KT M02/M07 A302 RMK A01 T10161068  RH  068%=      5-min Rain = 0
KPA1 132233Z 11009KT M02/M07 A302 RMK A01 T10161067  RH  068%=      5-min Rain = 0
KPA1 132234Z 11010KT M02/M07 A302 RMK A01 T10161066  RH  068%=      5-min Rain = 0
KPA1 132235Z 11011KT M02/M07 A3021 RMK A01 T10161067  RH  068%=      5-min Rain = 0
KPA1 132236Z 10009KT M02/M07 A3021 RMK A01 T10171068  RH  068%=      5-min Rain = 0
KPA1 132237Z 10008KT M02/M07 A3021 RMK A01 T10171067  RH  068%=      5-min Rain = 0
KPA1 132238Z 10007KT M02/M07 A3021 RMK A01 T10171067  RH  069%=      5-min Rain = 0
KPA1 132239Z 10008KT M02/M07 A3021 RMK A01 T10171066  RH  069%=      5-min Rain = 0
KPA1 132240Z 10009KT M02/M07 A302 RMK A01 T10171066  RH  069%=      5-min Rain = 0
KPA1 132241Z 10010KT M02/M07 A302 RMK A01 T10171066  RH  069%=      5-min Rain = 0
KPA1 132242Z 10010KT M02/M07 A302 RMK A01 T10171067  RH  069%=      5-min Rain = 0
KPA1 132243Z 12009KT M02/M07 A302 RMK A01 T10171068  RH  068%=      5-min Rain = 0
KPA1 132244Z 11008KT M02/M07 A302 RMK A01 T10171067  RH  069%=      5-min Rain = 0
KPA1 132245Z 10009KT M02/M07 A302 RMK A01 T10171066  RH  069%=      5-min Rain = 0
KPA1 132246Z 11008KT M02/M07 A302 RMK A01 T10171066  RH  069%=      5-min Rain = 0
KPA1 132247Z 10009KT M02/M07 A302 RMK A01 T10171067  RH  069%=      5-min Rain = 0
KPA1 132248Z 11009KT M02/M07 A302 RMK A01 T10171067  RH  069%=      5-min Rain = 0
KPA1 132249Z 12010KT M02/M07 A302 RMK A01 T10171066  RH  069%=      5-min Rain = 0
KPA1 132250Z 11010KT M02/M07 A302 RMK A01 T10171067  RH  069%=      5-min Rain = 0
KPA1 132251Z 11010KT M02/M07 A302 RMK A01 T10161067  RH  068%=      5-min Rain = 0
KPA1 132252Z 10010KT M02/M07 A302 RMK A01 T10161068  RH  068%=      5-min Rain = 0
KPA1 132253Z 10011KT M02/M07 A302 RMK A01 T10161067  RH  068%=      5-min Rain = 0
KPA1 132254Z 10010KT M02/M07 A302 RMK A01 T10161067  RH  068%=      5-min Rain = 0
KPA1 132255Z 11010KT M02/M07 A302 RMK A01 T10171067  RH  069%=      5-min Rain = 0
KPA1 132256Z 11009KT M02/M07 A302 RMK A01 T10161066  RH  069%=      5-min Rain = 0
KPA1 132257Z 10010KT M02/M07 A302 RMK A01 T10161066  RH  069%=      5-min Rain = 0
KPA1 132258Z 10010KT M02/M07 A302 RMK A01 T10161066  RH  069%=      5-min Rain = 0
KPA1 132259Z 11009KT M02/M07 A302 RMK A01 T10161066  RH  069%=      5-min Rain = 0
KPA1 132300Z 10008KT M02/M07 A302 RMK A01 T10161065  RH  070%=      5-min Rain = 0
KPA1 132301Z 10010KT M02/M07 A302 RMK A01 T10161065  RH  070%=      5-min Rain = 0
KPA1 132302Z 11012KT M02/M07 A302 RMK A01 T10161066  RH  069%=      5-min Rain = 0
KPA1 132303Z 10012KT M02/M07 A3021 RMK A01 T10171067  RH  068%=      5-min Rain = 0
KPA1 132304Z 10010KT M02/M07 A3021 RMK A01 T10171068  RH  068%=      5-min Rain = 0
KPA1 132305Z 10009KT M02/M07 A3021 RMK A01 T10171068  RH  068%=      5-min Rain = 0
KPA1 132306Z 10009KT M02/M07 A3021 RMK A01 T10181067  RH  069%=      5-min Rain = 0
KPA1 132307Z 10008KT M02/M07 A3021 RMK A01 T10181065  RH  070%=      5-min Rain = 0
KPA1 132308Z 11010KT M02/M06 A3021 RMK A01 T10171064  RH  070%=      5-min Rain = 0
KPA1 132309Z 11010KT M02/M06 A3021 RMK A01 T10171064  RH  070%=      5-min Rain = 0
KPA1 132310Z 10010KT M02/M07 A3021 RMK A01 T10171065  RH  069%=      5-min Rain = 0
KPA1 132311Z 10012KT M02/M07 A3021 RMK A01 T10171065  RH  069%=      5-min Rain = 0
KPA1 132312Z 10011KT M02/M07 A302 RMK A01 T10171066  RH  069%=      5-min Rain = 0
KPA1 132313Z 10011KT M02/M07 A302 RMK A01 T10171066  RH  069%=      5-min Rain = 0
KPA1 132314Z 10010KT M02/M07 A302 RMK A01 T10171066  RH  070%=      5-min Rain = 0
KPA1 132315Z 10012KT M02/M07 A3021 RMK A01 T10171065  RH  070%=      5-min Rain = 0
KPA1 132316Z 10011KT M02/M07 A3021 RMK A01 T10171066  RH  069%=      5-min Rain = 0
KPA1 132317Z 11010KT M02/M07 A3021 RMK A01 T10171065  RH  070%=      5-min Rain = 0
KPA1 132318Z 11011KT M02/M07 A3021 RMK A01 T10181065  RH  070%=      5-min Rain = 0
KPA1 132319Z 10010KT M02/M07 A3021 RMK A01 T10171065  RH  070%=      5-min Rain = 0
KPA1 132320Z 09011KT M02/M06 A3021 RMK A01 T10171063  RH  071%=      5-min Rain = 0
KPA1 132321Z 09010KT M02/M07 A3021 RMK A01 T10171065  RH  070%=      5-min Rain = 0
KPA1 132322Z 10010KT M02/M07 A3021 RMK A01 T10181065  RH  070%=      5-min Rain = 0
KPA1 132323Z 10012KT M02/M07 A3021 RMK A01 T10181065  RH  071%=      5-min Rain = 0
KPA1 132324Z 09010KT M02/M07 A3021 RMK A01 T10191066  RH  070%=      5-min Rain = 0
KPA1 132325Z 10008KT M02/M07 A302 RMK A01 T10191066  RH  070%=      5-min Rain = 0
KPA1 132326Z 10009KT M02/M06 A3021 RMK A01 T10191064  RH  071%=      5-min Rain = 0
KPA1 132327Z 11007KT M02/M06 A3021 RMK A01 T10181062  RH  072%=      5-min Rain = 0
KPA1 132328Z 11008KT M02/M06 A3021 RMK A01 T10181062  RH  072%=      5-min Rain = 0
KPA1 132329Z 11011KT M02/M06 A3021 RMK A01 T10181064  RH  071%=      5-min Rain = 0
KPA1 132330Z 11012KT M02/M07 A3021 RMK A01 T10181065  RH  070%=      5-min Rain = 0
KPA1 132331Z 11010KT M02/M07 A3021 RMK A01 T10181066  RH  069%=      5-min Rain = 0
KPA1 132332Z 11011KT M02/M07 A3021 RMK A01 T10181066  RH  070%=      5-min Rain = 0
KPA1 132333Z 11011KT M02/M07 A3021 RMK A01 T10181066  RH  070%=      5-min Rain = 0
KPA1 132334Z 11010KT M02/M07 A3021 RMK A01 T10181066  RH  070%=      5-min Rain = 0
KPA1 132335Z 11010KT M02/M07 A3021 RMK A01 T10181065  RH  070%=      5-min Rain = 0
KPA1 132336Z 10009KT M02/M07 A3021 RMK A01 T10181065  RH  070%=      5-min Rain = 0
KPA1 132337Z 11010KT M02/M06 A3021 RMK A01 T10181063  RH  071%=      5-min Rain = 0
KPA1 132338Z 12010KT M02/M06 A3021 RMK A01 T10171063  RH  071%=      5-min Rain = 0
KPA1 132339Z 11008KT M02/M06 A3021 RMK A01 T10171064  RH  070%=      5-min Rain = 0
KPA1 132340Z 11011KT M02/M06 A3021 RMK A01 T10171064  RH  070%=      5-min Rain = 0
KPA1 132341Z 11011KT M02/M07 A3021 RMK A01 T10171065  RH  070%=      5-min Rain = 0
KPA1 132342Z 11011KT M02/M07 A3021 RMK A01 T10171065  RH  070%=      5-min Rain = 0
KPA1 132343Z 11009KT M02/M07 A3021 RMK A01 T10171066  RH  070%=      5-min Rain = 0
KPA1 132344Z 11011KT M02/M07 A3021 RMK A01 T10181066  RH  070%=      5-min Rain = 0
KPA1 132345Z 12010KT M02/M07 A3021 RMK A01 T10181066  RH  070%=      5-min Rain = 0
KPA1 132346Z 11010KT M02/M07 A3021 RMK A01 T10181067  RH  069%=      5-min Rain = 0
KPA1 132347Z 11010KT M02/M07 A3021 RMK A01 T10181067  RH  069%=      5-min Rain = 0
KPA1 132348Z 11012KT M02/M07 A3021 RMK A01 T10181066  RH  070%=      5-min Rain = 0
KPA1 132349Z 11010KT M02/M07 A3021 RMK A01 T10181066  RH  070%=      5-min Rain = 0
KPA1 132350Z 11010KT M02/M07 A3021 RMK A01 T10181066  RH  070%=      5-min Rain = 0
KPA1 132351Z 11011KT M02/M07 A3021 RMK A01 T10181066  RH  070%=      5-min Rain = 0
KPA1 132352Z 11011KT M02/M07 A3021 RMK A01 T10181066  RH  070%=      5-min Rain = 0
KPA1 132353Z 11011KT M02/M07 A3021 RMK A01 T10181065  RH  070%=      5-min Rain = 0
KPA1 132354Z 11011KT M02/M07 A3021 RMK A01 T10181065  RH  070%=      5-min Rain = 0
KPA1 132355Z 11011KT M02/M07 A3021 RMK A01 T10181065  RH  070%=      5-min Rain = 0
KPA1 132356Z 10012KT M02/M07 A3021 RMK A01 T10181065  RH  070%=      5-min Rain = 0
KPA1 132357Z 11011KT M02/M07 A3021 RMK A01 T10181066  RH  070%=      5-min Rain = 0
KPA1 132358Z 11011KT M02/M07 A3021 RMK A01 T10191066  RH  070%=      5-min Rain = 0
KPA1 132359Z 10011KT M02/M07 A3021 RMK A01 T10191066  RH  070%=      5-min Rain = 0
KPA1 140000Z 10011KT M02/M07 A3021 RMK A01 T10191065  RH  070%=      5-min Rain = 0
KPA1 140001Z 10009KT M02/M07 A3021 RMK A01 T10181065  RH  071%=      5-min Rain = 0
KPA1 140002Z 10011KT M02/M06 A3021 RMK A01 T10181064  RH  071%=      5-min Rain = 0
KPA1 140003Z 11010KT M02/M07 A3021 RMK A01 T10191065  RH  071%=      5-min Rain = 0
KPA1 140004Z 11013KT M02/M07 A3021 RMK A01 T10191065  RH  071%=      5-min Rain = 0
KPA1 140005Z 11012KT M02/M07 A3022 RMK A01 T10191067  RH  070%=      5-min Rain = 0
KPA1 140006Z 11011KT M02/M07 A3022 RMK A01 T10191066  RH  070%=      5-min Rain = 0
KPA1 140007Z 11013KT M02/M07 A3022 RMK A01 T10191068  RH  070%=      5-min Rain = 0
KPA1 140008Z 11012KT M02/M07 A3022 RMK A01 T10201070  RH  069%=      5-min Rain = 0
KPA1 140009Z 10013KT M02/M07 A3022 RMK A01 T10201070  RH  069%=      5-min Rain = 0
KPA1 140010Z 11013KT M02/M07 A3022 RMK A01 T10201070  RH  068%=      5-min Rain = 0
KPA1 140011Z 11011KT M02/M07 A3022 RMK A01 T10201070  RH  069%=      5-min Rain = 0
KPA1 140012Z 11012KT M02/M07 A3022 RMK A01 T10201069  RH  069%=      5-min Rain = 0
KPA1 140013Z 11011KT M02/M07 A3022 RMK A01 T10201070  RH  069%=      5-min Rain = 0
KPA1 140014Z 11010KT M02/M07 A3022 RMK A01 T10201069  RH  069%=      5-min Rain = 0
KPA1 140015Z 11011KT M02/M07 A3022 RMK A01 T10201068  RH  070%=      5-min Rain = 0
KPA1 140016Z 10009KT M02/M07 A3022 RMK A01 T10201068  RH  070%=      5-min Rain = 0
KPA1 140017Z 11012KT M02/M07 A3022 RMK A01 T10201067  RH  071%=      5-min Rain = 0
KPA1 140018Z 11013KT M02/M07 A3022 RMK A01 T10201067  RH  070%=      5-min Rain = 0
KPA1 140019Z 11013KT M02/M07 A3022 RMK A01 T10201069  RH  069%=      5-min Rain = 0
KPA1 140020Z 10012KT M02/M07 A3022 RMK A01 T10201070  RH  069%=      5-min Rain = 0
KPA1 140021Z 11012KT M02/M07 A3022 RMK A01 T10211069  RH  069%=      5-min Rain = 0
KPA1 140022Z 11011KT M02/M07 A3022 RMK A01 T10201068  RH  070%=      5-min Rain = 0
KPA1 140023Z 11010KT M02/M07 A3022 RMK A01 T10201068  RH  070%=      5-min Rain = 0
KPA1 140024Z 11011KT M02/M07 A3022 RMK A01 T10211068  RH  070%=      5-min Rain = 0
KPA1 140025Z 11010KT M02/M07 A3022 RMK A01 T10211069  RH  070%=      5-min Rain = 0
KPA1 140026Z 11010KT M02/M07 A3022 RMK A01 T10211068  RH  070%=      5-min Rain = 0
KPA1 140027Z 11010KT M02/M07 A3022 RMK A01 T10211068  RH  070%=      5-min Rain = 0
KPA1 140028Z 11013KT M02/M07 A3022 RMK A01 T10211068  RH  070%=      5-min Rain = 0
KPA1 140029Z 11012KT M02/M07 A3022 RMK A01 T10211071  RH  069%=      5-min Rain = 0
KPA1 140030Z 11010KT M02/M07 A3022 RMK A01 T10221073  RH  068%=      5-min Rain = 0
KPA1 140031Z 12010KT M02/M07 A3022 RMK A01 T10221072  RH  069%=      5-min Rain = 0
KPA1 140032Z 11012KT M02/M07 A3022 RMK A01 T10221071  RH  069%=      5-min Rain = 0
KPA1 140033Z 11012KT M02/M07 A3022 RMK A01 T10221072  RH  069%=      5-min Rain = 0
KPA1 140034Z 12010KT M02/M07 A3022 RMK A01 T10221072  RH  069%=      5-min Rain = 0
KPA1 140035Z 12011KT M02/M07 A3022 RMK A01 T10221071  RH  069%=      5-min Rain = 0
KPA1 140036Z 11012KT M02/M07 A3022 RMK A01 T10221071  RH  069%=      5-min Rain = 0
KPA1 140037Z 11012KT M02/M07 A3022 RMK A01 T10221072  RH  069%=      5-min Rain = 0
KPA1 140038Z 11011KT M02/M07 A3022 RMK A01 T10221072  RH  068%=      5-min Rain = 0
KPA1 140039Z 11010KT M02/M07 A3023 RMK A01 T10231072  RH  069%=      5-min Rain = 0
KPA1 140040Z 11011KT M02/M07 A3023 RMK A01 T10231071  RH  069%=      5-min Rain = 0
KPA1 140041Z 11010KT M02/M07 A3023 RMK A01 T10231071  RH  070%=      5-min Rain = 0
KPA1 140042Z 11012KT M02/M07 A3023 RMK A01 T10231070  RH  070%=      5-min Rain = 0
KPA1 140043Z 10011KT M02/M07 A3023 RMK A01 T10221071  RH  070%=      5-min Rain = 0
KPA1 140044Z 10011KT M02/M07 A3023 RMK A01 T10231071  RH  070%=      5-min Rain = 0
KPA1 140045Z 10011KT M02/M07 A3023 RMK A01 T10231071  RH  070%=      5-min Rain = 0
KPA1 140046Z 10011KT M02/M07 A3023 RMK A01 T10231071  RH  070%=      5-min Rain = 0
KPA1 140047Z 11011KT M02/M07 A3023 RMK A01 T10231072  RH  069%=      5-min Rain = 0
KPA1 140048Z 11011KT M02/M07 A3023 RMK A01 T10241072  RH  070%=      5-min Rain = 0
KPA1 140049Z 12011KT M02/M07 A3023 RMK A01 T10241073  RH  069%=      5-min Rain = 0
KPA1 140050Z 11011KT M02/M07 A3023 RMK A01 T10241073  RH  069%=      5-min Rain = 0
KPA1 140051Z 11011KT M02/M07 A3023 RMK A01 T10241073  RH  069%=      5-min Rain = 0
KPA1 140052Z 11012KT M02/M07 A3023 RMK A01 T10241072  RH  069%=      5-min Rain = 0
KPA1 140053Z 11010KT M02/M07 A3023 RMK A01 T10231072  RH  069%=      5-min Rain = 0
KPA1 140054Z 11012KT M02/M07 A3023 RMK A01 T10231071  RH  070%=      5-min Rain = 0
KPA1 140055Z 11012KT M02/M07 A3023 RMK A01 T10241072  RH  069%=      5-min Rain = 0
KPA1 140056Z 11012KT M02/M07 A3023 RMK A01 T10241073  RH  069%=      5-min Rain = 0
KPA1 140057Z 11011KT M02/M08 A3023 RMK A01 T10241075  RH  068%=      5-min Rain = 0
KPA1 140058Z 11010KT M02/M07 A3023 RMK A01 T10241074  RH  068%=      5-min Rain = 0
KPA1 140059Z 11011KT M02/M07 A3023 RMK A01 T10241074  RH  069%=      5-min Rain = 0
KPA1 140100Z 12011KT M03/M07 A3023 RMK A01 T10251074  RH  069%=      5-min Rain = 0
KPA1 140101Z 11010KT M03/M07 A3024 RMK A01 T10251074  RH  069%=      5-min Rain = 0
KPA1 140102Z 10010KT M03/M07 A3024 RMK A01 T10251073  RH  069%=      5-min Rain = 0
KPA1 140103Z 11011KT M02/M07 A3024 RMK A01 T10241073  RH  069%=      5-min Rain = 0
KPA1 140104Z 10011KT M03/M07 A3024 RMK A01 T10251072  RH  070%=      5-min Rain = 0
KPA1 140105Z 11013KT M03/M07 A3024 RMK A01 T10251073  RH  069%=      5-min Rain = 0
KPA1 140106Z 10012KT M03/M08 A3024 RMK A01 T10251075  RH  069%=      5-min Rain = 0
KPA1 140107Z 10011KT M03/M07 A3024 RMK A01 T10261074  RH  069%=      5-min Rain = 0
KPA1 140108Z 11012KT M03/M07 A3024 RMK A01 T10261074  RH  069%=      5-min Rain = 0
KPA1 140109Z 11011KT M03/M07 A3024 RMK A01 T10251074  RH  069%=      5-min Rain = 0
KPA1 140110Z 11009KT M03/M07 A3024 RMK A01 T10261074  RH  069%=      5-min Rain = 0
KPA1 140111Z 11010KT M03/M07 A3024 RMK A01 T10261074  RH  070%=      5-min Rain = 0
KPA1 140112Z 11009KT M03/M07 A3024 RMK A01 T10261074  RH  069%=      5-min Rain = 0
KPA1 140113Z 10010KT M03/M07 A3024 RMK A01 T10261074  RH  069%=      5-min Rain = 0
KPA1 140114Z 11009KT M03/M07 A3024 RMK A01 T10251073  RH  070%=      5-min Rain = 0
KPA1 140115Z 11009KT M03/M07 A3024 RMK A01 T10251073  RH  070%=      5-min Rain = 0
KPA1 140116Z 10010KT M03/M07 A3024 RMK A01 T10261074  RH  070%=      5-min Rain = 0
KPA1 140117Z 11010KT M03/M07 A3024 RMK A01 T10251074  RH  069%=      5-min Rain = 0
KPA1 140118Z 11011KT M03/M07 A3024 RMK A01 T10251074  RH  069%=      5-min Rain = 0
KPA1 140119Z 09011KT M03/M07 A3024 RMK A01 T10261074  RH  069%=      5-min Rain = 0
KPA1 140120Z 09011KT M03/M08 A3024 RMK A01 T10271075  RH  070%=      5-min Rain = 0
KPA1 140121Z 10010KT M03/M08 A3024 RMK A01 T10281075  RH  070%=      5-min Rain = 0
KPA1 140122Z 10009KT M03/M07 A3024 RMK A01 T10281074  RH  071%=      5-min Rain = 0
KPA1 140123Z 10010KT M03/M07 A3024 RMK A01 T10281072  RH  071%=      5-min Rain = 0
KPA1 140124Z 10009KT M03/M07 A3024 RMK A01 T10281071  RH  072%=      5-min Rain = 0
KPA1 140125Z 10010KT M03/M07 A3024 RMK A01 T10281071  RH  072%=      5-min Rain = 0
KPA1 140126Z 10010KT M03/M07 A3024 RMK A01 T10281072  RH  072%=      5-min Rain = 0
KPA1 140127Z 10011KT M03/M07 A3024 RMK A01 T10281072  RH  072%=      5-min Rain = 0
KPA1 140128Z 10012KT M03/M07 A3024 RMK A01 T10281073  RH  071%=      5-min Rain = 0
KPA1 140129Z 10011KT M03/M07 A3024 RMK A01 T10281074  RH  071%=      5-min Rain = 0
KPA1 140130Z 10012KT M03/M07 A3024 RMK A01 T10281074  RH  071%=      5-min Rain = 0
KPA1 140131Z 10011KT M03/M07 A3024 RMK A01 T10281074  RH  071%=      5-min Rain = 0
KPA1 140132Z 09011KT M03/M07 A3024 RMK A01 T10281073  RH  071%=      5-min Rain = 0
KPA1 140133Z 09012KT M03/M07 A3024 RMK A01 T10291074  RH  071%=      5-min Rain = 0
KPA1 140134Z 10011KT M03/M08 A3024 RMK A01 T10291075  RH  070%=      5-min Rain = 0
KPA1 140135Z 10009KT M03/M08 A3024 RMK A01 T10291076  RH  070%=      5-min Rain = 0
KPA1 140136Z 10010KT M03/M07 A3025 RMK A01 T10291074  RH  071%=      5-min Rain = 0
KPA1 140137Z 10011KT M03/M07 A3025 RMK A01 T10291074  RH  071%=      5-min Rain = 0
KPA1 140138Z 10011KT M03/M08 A3025 RMK A01 T10301076  RH  070%=      5-min Rain = 0
KPA1 140139Z 10011KT M03/M08 A3025 RMK A01 T10301077  RH  070%=      5-min Rain = 0
KPA1 140140Z 10011KT M03/M08 A3025 RMK A01 T10301076  RH  070%=      5-min Rain = 0
KPA1 140141Z 10011KT M03/M08 A3025 RMK A01 T10291076  RH  070%=      5-min Rain = 0
KPA1 140142Z 10009KT M03/M08 A3025 RMK A01 T10291075  RH  071%=      5-min Rain = 0
KPA1 140143Z 10011KT M03/M08 A3025 RMK A01 T10301076  RH  071%=      5-min Rain = 0
KPA1 140144Z 10010KT M03/M08 A3025 RMK A01 T10301077  RH  070%=      5-min Rain = 0
KPA1 140145Z 10012KT M03/M08 A3025 RMK A01 T10301076  RH  071%=      5-min Rain = 0
KPA1 140146Z 10011KT M03/M08 A3025 RMK A01 T10301076  RH  070%=      5-min Rain = 0
KPA1 140147Z 10012KT M03/M08 A3025 RMK A01 T10301077  RH  070%=      5-min Rain = 0
KPA1 140148Z 10011KT M03/M08 A3025 RMK A01 T10301077  RH  070%=      5-min Rain = 0
KPA1 140149Z 10010KT M03/M08 A3025 RMK A01 T10301077  RH  070%=      5-min Rain = 0
KPA1 140150Z 10011KT M03/M08 A3025 RMK A01 T10301077  RH  070%=      5-min Rain = 0
KPA1 140151Z 10012KT M03/M08 A3025 RMK A01 T10301077  RH  070%=      5-min Rain = 0
KPA1 140152Z 10013KT M03/M08 A3025 RMK A01 T10301077  RH  070%=      5-min Rain = 0
KPA1 140153Z 10012KT M03/M08 A3025 RMK A01 T10301079  RH  069%=      5-min Rain = 0
KPA1 140154Z 10012KT M03/M08 A3025 RMK A01 T10311080  RH  069%=      5-min Rain = 0
KPA1 140155Z 10011KT M03/M08 A3025 RMK A01 T10311080  RH  069%=      5-min Rain = 0
KPA1 140156Z 10012KT M03/M08 A3025 RMK A01 T10311080  RH  069%=      5-min Rain = 0
KPA1 140157Z 11011KT M03/M08 A3025 RMK A01 T10311081  RH  068%=      5-min Rain = 0
KPA1 140158Z 10012KT M03/M08 A3025 RMK A01 T10311082  RH  068%=      5-min Rain = 0
KPA1 140159Z 10013KT M03/M08 A3025 RMK A01 T10321084  RH  067%=      5-min Rain = 0
KPA1 140200Z 10011KT M03/M08 A3025 RMK A01 T10321084  RH  067%=      5-min Rain = 0
KPA1 140201Z 10013KT M03/M09 A3025 RMK A01 T10321085  RH  067%=      5-min Rain = 0
KPA1 140202Z 10011KT M03/M09 A3025 RMK A01 T10331086  RH  067%=      5-min Rain = 0
KPA1 140203Z 10011KT M03/M08 A3025 RMK A01 T10321084  RH  067%=      5-min Rain = 0
KPA1 140204Z 10010KT M03/M08 A3025 RMK A01 T10321084  RH  068%=      5-min Rain = 0
KPA1 140205Z 11010KT M03/M08 A3025 RMK A01 T10321083  RH  068%=      5-min Rain = 0
KPA1 140206Z 12011KT M03/M08 A3025 RMK A01 T10321083  RH  068%=      5-min Rain = 0
KPA1 140207Z 11011KT M03/M08 A3025 RMK A01 T10321084  RH  067%=      5-min Rain = 0
KPA1 140208Z 11012KT M03/M09 A3025 RMK A01 T10321085  RH  067%=      5-min Rain = 0
KPA1 140209Z 12013KT M03/M09 A3025 RMK A01 T10321086  RH  066%=      5-min Rain = 0
KPA1 140210Z 12011KT M03/M09 A3025 RMK A01 T10321087  RH  066%=      5-min Rain = 0
KPA1 140211Z 11013KT M03/M09 A3025 RMK A01 T10321087  RH  066%=      5-min Rain = 0
KPA1 140212Z 10010KT M03/M09 A3025 RMK A01 T10321087  RH  066%=      5-min Rain = 0
KPA1 140213Z 11011KT M03/M09 A3025 RMK A01 T10321086  RH  067%=      5-min Rain = 0
KPA1 140214Z 11011KT M03/M09 A3025 RMK A01 T10321086  RH  067%=      5-min Rain = 0
KPA1 140215Z 11012KT M03/M09 A3025 RMK A01 T10331087  RH  066%=      5-min Rain = 0
KPA1 140216Z 11013KT M03/M09 A3025 RMK A01 T10331087  RH  066%=      5-min Rain = 0
KPA1 140217Z 11013KT M03/M09 A3025 RMK A01 T10331088  RH  066%=      5-min Rain = 0
KPA1 140218Z 10011KT M03/M09 A3025 RMK A01 T10331088  RH  066%=      5-min Rain = 0
KPA1 140219Z 10010KT M03/M09 A3026 RMK A01 T10331086  RH  067%=      5-min Rain = 0
KPA1 140220Z 10011KT M03/M08 A3026 RMK A01 T10331082  RH  069%=      5-min Rain = 0
KPA1 140221Z 10012KT M04/M08 A3026 RMK A01 T10351083  RH  069%=      5-min Rain = 0
KPA1 140222Z 09011KT M04/M08 A3026 RMK A01 T10361084  RH  069%=      5-min Rain = 0
KPA1 140223Z 10012KT M04/M08 A3026 RMK A01 T10371083  RH  070%=      5-min Rain = 0
KPA1 140224Z 09012KT M04/M08 A3026 RMK A01 T10371083  RH  071%=      5-min Rain = 0
KPA1 140225Z 09014KT M04/M08 A3026 RMK A01 T10381084  RH  070%=      5-min Rain = 0
KPA1 140226Z 09013KT M04/M09 A3026 RMK A01 T10391085  RH  070%=      5-min Rain = 0
KPA1 140227Z 09014KT M04/M09 A3026 RMK A01 T10401086  RH  070%=      5-min Rain = 0
KPA1 140228Z 09012KT M04/M09 A3026 RMK A01 T10411087  RH  070%=      5-min Rain = 0
KPA1 140229Z 10013KT M04/M09 A3026 RMK A01 T10411087  RH  071%=      5-min Rain = 0
KPA1 140230Z 09012KT M04/M09 A3026 RMK A01 T10411086  RH  071%=      5-min Rain = 0
KPA1 140231Z 09010KT M04/M09 A3026 RMK A01 T10421086  RH  071%=      5-min Rain = 0
KPA1 140232Z 09011KT M04/M08 A3026 RMK A01 T10411084  RH  072%=      5-min Rain = 0
KPA1 140233Z 09013KT M04/M09 A3026 RMK A01 T10421085  RH  072%=      5-min Rain = 0
KPA1 140234Z 09012KT M04/M09 A3026 RMK A01 T10421086  RH  071%=      5-min Rain = 0
KPA1 140235Z 09012KT M04/M09 A3026 RMK A01 T10421086  RH  071%=      5-min Rain = 0
KPA1 140236Z 09012KT M04/M09 A3026 RMK A01 T10421086  RH  071%=      5-min Rain = 0
KPA1 140237Z 09011KT M04/M09 A3026 RMK A01 T10421086  RH  071%=      5-min Rain = 0
KPA1 140238Z 09011KT M04/M09 A3026 RMK A01 T10421086  RH  071%=      5-min Rain = 0
KPA1 140239Z 09012KT M04/M09 A3026 RMK A01 T10421086  RH  071%=      5-min Rain = 0
KPA1 140240Z 09013KT M04/M09 A3026 RMK A01 T10421087  RH  071%=      5-min Rain = 0
KPA1 140241Z 09011KT M04/M09 A3026 RMK A01 T10421088  RH  070%=      5-min Rain = 0
KPA1 140242Z 10010KT M04/M09 A3026 RMK A01 T10421087  RH  071%=      5-min Rain = 0
KPA1 140243Z 10011KT M04/M09 A3026 RMK A01 T10421086  RH  072%=      5-min Rain = 0
KPA1 140244Z 10011KT M04/M09 A3026 RMK A01 T10421086  RH  071%=      5-min Rain = 0
KPA1 140245Z 10010KT M04/M09 A3026 RMK A01 T10421086  RH  071%=      5-min Rain = 0
KPA1 140246Z 10011KT M04/M09 A3026 RMK A01 T10421086  RH  071%=      5-min Rain = 0
KPA1 140247Z 10011KT M04/M09 A3026 RMK A01 T10421086  RH  071%=      5-min Rain = 0
KPA1 140248Z 10012KT M04/M09 A3026 RMK A01 T10421086  RH  071%=      5-min Rain = 0
KPA1 140249Z 09012KT M04/M09 A3026 RMK A01 T10421087  RH  071%=      5-min Rain = 0
KPA1 140250Z 10013KT M04/M09 A3026 RMK A01 T10421087  RH  071%=      5-min Rain = 0
KPA1 140251Z 09012KT M04/M09 A3026 RMK A01 T10431089  RH  071%=      5-min Rain = 0
KPA1 140252Z 09011KT M04/M09 A3026 RMK A01 T10431088  RH  071%=      5-min Rain = 0
KPA1 140253Z 09010KT M04/M09 A3026 RMK A01 T10431088  RH  071%=      5-min Rain = 0
KPA1 140254Z 08011KT M04/M09 A3027 RMK A01 T10431088  RH  071%=      5-min Rain = 0
KPA1 140255Z 09010KT M04/M09 A3027 RMK A01 T10441088  RH  071%=      5-min Rain = 0
KPA1 140256Z 09012KT M04/M09 A3027 RMK A01 T10441087  RH  072%=      5-min Rain = 0
KPA1 140257Z 09014KT M04/M09 A3027 RMK A01 T10441088  RH  071%=      5-min Rain = 0
KPA1 140258Z 10012KT M04/M09 A3027 RMK A01 T10441090  RH  071%=      5-min Rain = 0
KPA1 140259Z 10012KT M05/M09 A3027 RMK A01 T10451090  RH  070%=      5-min Rain = 0
KPA1 140300Z 10012KT M05/M09 A3027 RMK A01 T10451089  RH  071%=      5-min Rain = 0
KPA1 140301Z 10012KT M05/M09 A3027 RMK A01 T10451089  RH  071%=      5-min Rain = 0
KPA1 140302Z 10012KT M05/M09 A3027 RMK A01 T10451089  RH  071%=      5-min Rain = 0
KPA1 140303Z 10012KT M05/M09 A3027 RMK A01 T10451091  RH  070%=      5-min Rain = 0
KPA1 140304Z 10011KT M05/M09 A3027 RMK A01 T10451091  RH  071%=      5-min Rain = 0
KPA1 140305Z 09009KT M05/M09 A3027 RMK A01 T10451089  RH  071%=      5-min Rain = 0
KPA1 140306Z 09009KT M05/M09 A3027 RMK A01 T10451088  RH  072%=      5-min Rain = 0
KPA1 140307Z 10012KT M05/M09 A3027 RMK A01 T10451088  RH  072%=      5-min Rain = 0
KPA1 140308Z 10011KT M05/M09 A3027 RMK A01 T10451089  RH  071%=      5-min Rain = 0
KPA1 140309Z 09010KT M05/M09 A3027 RMK A01 T10451089  RH  071%=      5-min Rain = 0
KPA1 140310Z 09011KT M05/M09 A3027 RMK A01 T10451089  RH  071%=      5-min Rain = 0
KPA1 140311Z 09012KT M05/M09 A3027 RMK A01 T10451089  RH  071%=      5-min Rain = 0
KPA1 140312Z 09009KT M05/M09 A3027 RMK A01 T10451089  RH  071%=      5-min Rain = 0
KPA1 140313Z 09011KT M05/M09 A3027 RMK A01 T10451088  RH  072%=      5-min Rain = 0
KPA1 140314Z 09011KT M05/M09 A3027 RMK A01 T10451089  RH  071%=      5-min Rain = 0
KPA1 140315Z 09012KT M05/M09 A3027 RMK A01 T10461090  RH  071%=      5-min Rain = 0
KPA1 140316Z 09011KT M05/M09 A3027 RMK A01 T10461090  RH  071%=      5-min Rain = 0
KPA1 140317Z 09012KT M05/M09 A3027 RMK A01 T10461090  RH  071%=      5-min Rain = 0
KPA1 140318Z 09010KT M05/M09 A3027 RMK A01 T10461090  RH  071%=      5-min Rain = 0
KPA1 140319Z 09011KT M05/M09 A3027 RMK A01 T10451089  RH  071%=      5-min Rain = 0
KPA1 140320Z 09010KT M05/M09 A3027 RMK A01 T10461090  RH  071%=      5-min Rain = 0
KPA1 140321Z 09011KT M05/M09 A3027 RMK A01 T10461089  RH  072%=      5-min Rain = 0
KPA1 140322Z 09011KT M05/M09 A3027 RMK A01 T10461089  RH  072%=      5-min Rain = 0
KPA1 140323Z 09010KT M05/M09 A3027 RMK A01 T10461089  RH  072%=      5-min Rain = 0
KPA1 140324Z 09012KT M05/M09 A3027 RMK A01 T10461088  RH  072%=      5-min Rain = 0
KPA1 140325Z 09012KT M05/M09 A3027 RMK A01 T10461088  RH  072%=      5-min Rain = 0
KPA1 140326Z 10010KT M05/M09 A3027 RMK A01 T10461088  RH  073%=      5-min Rain = 0
KPA1 140327Z 10008KT M05/M09 A3027 RMK A01 T10461086  RH  073%=      5-min Rain = 0
KPA1 140328Z 10010KT M05/M08 A3027 RMK A01 T10451084  RH  074%=      5-min Rain = 0
KPA1 140329Z 10011KT M05/M09 A3027 RMK A01 T10451085  RH  073%=      5-min Rain = 0
KPA1 140330Z 10011KT M05/M09 A3027 RMK A01 T10451087  RH  072%=      5-min Rain = 0
KPA1 140331Z 10011KT M05/M09 A3027 RMK A01 T10451088  RH  072%=      5-min Rain = 0
KPA1 140332Z 10010KT M05/M09 A3027 RMK A01 T10461089  RH  072%=      5-min Rain = 0
KPA1 140333Z 10011KT M05/M09 A3027 RMK A01 T10461090  RH  071%=      5-min Rain = 0
KPA1 140334Z 10012KT M05/M09 A3027 RMK A01 T10471091  RH  071%=      5-min Rain = 0
KPA1 140335Z 10011KT M05/M09 A3027 RMK A01 T10471092  RH  071%=      5-min Rain = 0
KPA1 140336Z 10011KT M05/M09 A3027 RMK A01 T10471092  RH  071%=      5-min Rain = 0
KPA1 140337Z 10010KT M05/M09 A3027 RMK A01 T10481091  RH  071%=      5-min Rain = 0
KPA1 140338Z 10011KT M05/M09 A3027 RMK A01 T10481091  RH  071%=      5-min Rain = 0
KPA1 140339Z 10011KT M05/M09 A3027 RMK A01 T10481092  RH  071%=      5-min Rain = 0
KPA1 140340Z 10010KT M05/M09 A3027 RMK A01 T10481092  RH  071%=      5-min Rain = 0
KPA1 140341Z 10012KT M05/M09 A3027 RMK A01 T10481092  RH  071%=      5-min Rain = 0
KPA1 140342Z 10013KT M05/M09 A3027 RMK A01 T10481094  RH  070%=      5-min Rain = 0
KPA1 140343Z 10011KT M05/M10 A3027 RMK A01 T10481095  RH  070%=      5-min Rain = 0
KPA1 140344Z 10011KT M05/M10 A3027 RMK A01 T10481095  RH  070%=      5-min Rain = 0
KPA1 140345Z 10011KT M05/M09 A3027 RMK A01 T10481094  RH  070%=      5-min Rain = 0
KPA1 140346Z 10011KT M05/M09 A3027 RMK A01 T10481094  RH  070%=      5-min Rain = 0
KPA1 140347Z 10012KT M05/M09 A3027 RMK A01 T10481094  RH  070%=      5-min Rain = 0
KPA1 140348Z 11011KT M05/M10 A3028 RMK A01 T10481095  RH  070%=      5-min Rain = 0
KPA1 140349Z 10011KT M05/M10 A3028 RMK A01 T10481095  RH  070%=      5-min Rain = 0
KPA1 140350Z 10011KT M05/M10 A3028 RMK A01 T10491095  RH  070%=      5-min Rain = 0
KPA1 140351Z 10011KT M05/M10 A3028 RMK A01 T10481095  RH  070%=      5-min Rain = 0
KPA1 140352Z 10011KT M05/M10 A3028 RMK A01 T10481095  RH  070%=      5-min Rain = 0
KPA1 140353Z 10011KT M05/M10 A3028 RMK A01 T10481095  RH  070%=      5-min Rain = 0
KPA1 140354Z 10010KT M05/M10 A3028 RMK A01 T10491095  RH  070%=      5-min Rain = 0
KPA1 140355Z 10011KT M05/M10 A3028 RMK A01 T10491095  RH  070%=      5-min Rain = 0
KPA1 140356Z 11009KT M05/M09 A3028 RMK A01 T10491094  RH  071%=      5-min Rain = 0
KPA1 140357Z 11011KT M05/M09 A3028 RMK A01 T10481093  RH  071%=      5-min Rain = 0
KPA1 140358Z 11010KT M05/M09 A3028 RMK A01 T10481094  RH  070%=      5-min Rain = 0
KPA1 140359Z 11010KT M05/M09 A3028 RMK A01 T10481093  RH  071%=      5-min Rain = 0
KPA1 140400Z 11010KT M05/M09 A3028 RMK A01 T10481093  RH  071%=      5-min Rain = 0
KPA1 140401Z 10010KT M05/M09 A3028 RMK A01 T10481093  RH  071%=      5-min Rain = 0
KPA1 140402Z 11008KT M05/M09 A3028 RMK A01 T10481093  RH  071%=      5-min Rain = 0
KPA1 140403Z 12012KT M05/M09 A3028 RMK A01 T10481093  RH  071%=      5-min Rain = 0
KPA1 140404Z 12011KT M05/M10 A3028 RMK A01 T10481096  RH  069%=      5-min Rain = 0
KPA1 140405Z 11010KT M05/M10 A3028 RMK A01 T10481099  RH  068%=      5-min Rain = 0
KPA1 140406Z 11009KT M05/M10 A3028 RMK A01 T10481097  RH  068%=      5-min Rain = 0
KPA1 140407Z 11010KT M05/M10 A3029 RMK A01 T10481096  RH  069%=      5-min Rain = 0
KPA1 140408Z 11010KT M05/M10 A3029 RMK A01 T10481095  RH  069%=      5-min Rain = 0
KPA1 140409Z 11011KT M05/M10 A3029 RMK A01 T10481097  RH  068%=      5-min Rain = 0
KPA1 140410Z 11010KT M05/M10 A3029 RMK A01 T10481099  RH  068%=      5-min Rain = 0
KPA1 140411Z 12009KT M05/M10 A3029 RMK A01 T10491099  RH  068%=      5-min Rain = 0
KPA1 140412Z 11012KT M05/M10 A3029 RMK A01 T10481098  RH  068%=      5-min Rain = 0
KPA1 140413Z 11012KT M05/M10 A3029 RMK A01 T10481099  RH  067%=      5-min Rain = 0
KPA1 140414Z 11012KT M05/M10 A3029 RMK A01 T10491101  RH  067%=      5-min Rain = 0
KPA1 140415Z 11012KT M05/M10 A3028 RMK A01 T10491101  RH  067%=      5-min Rain = 0
KPA1 140416Z 11013KT M05/M10 A3029 RMK A01 T10501103  RH  066%=      5-min Rain = 0
KPA1 140417Z 11012KT M05/M10 A3029 RMK A01 T10501103  RH  066%=      5-min Rain = 0
KPA1 140418Z 10012KT M05/M10 A3029 RMK A01 T10501102  RH  067%=      5-min Rain = 0
KPA1 140419Z 11010KT M05/M10 A3029 RMK A01 T10501102  RH  067%=      5-min Rain = 0
KPA1 140420Z 11011KT M05/M10 A3029 RMK A01 T10501102  RH  067%=      5-min Rain = 0
KPA1 140421Z 10011KT M05/M10 A3029 RMK A01 T10501102  RH  067%=      5-min Rain = 0
KPA1 140422Z 11010KT M05/M10 A3029 RMK A01 T10501101  RH  067%=      5-min Rain = 0
KPA1 140423Z 12011KT M05/M10 A3029 RMK A01 T10501101  RH  067%=      5-min Rain = 0
KPA1 140424Z 12011KT M05/M10 A3029 RMK A01 T10501104  RH  066%=      5-min Rain = 0
KPA1 140425Z 11011KT M05/M11 A3029 RMK A01 T10501105  RH  065%=      5-min Rain = 0
KPA1 140426Z 12010KT M05/M10 A3029 RMK A01 T10501104  RH  066%=      5-min Rain = 0
KPA1 140427Z 11010KT M05/M10 A3029 RMK A01 T10501102  RH  067%=      5-min Rain = 0
KPA1 140428Z 10011KT M05/M10 A3029 RMK A01 T10501101  RH  067%=      5-min Rain = 0
KPA1 140429Z 11011KT M05/M10 A3029 RMK A01 T10501101  RH  068%=      5-min Rain = 0
KPA1 140430Z 11011KT M05/M10 A3029 RMK A01 T10501101  RH  068%=      5-min Rain = 0
KPA1 140431Z 11010KT M05/M10 A3029 RMK A01 T10501101  RH  067%=      5-min Rain = 0
KPA1 140432Z 11008KT M05/M10 A3029 RMK A01 T10501101  RH  068%=      5-min Rain = 0
KPA1 140433Z 11008KT M05/M10 A3029 RMK A01 T10511099  RH  069%=      5-min Rain = 0
KPA1 140434Z 10009KT M05/M10 A3029 RMK A01 T10501098  RH  069%=      5-min Rain = 0
KPA1 140435Z 10011KT M05/M10 A3029 RMK A01 T10501099  RH  069%=      5-min Rain = 0
KPA1 140436Z 12010KT M05/M10 A3029 RMK A01 T10501100  RH  068%=      5-min Rain = 0
KPA1 140437Z 11010KT M05/M10 A3029 RMK A01 T10501100  RH  068%=      5-min Rain = 0
KPA1 140438Z 11009KT M05/M10 A3029 RMK A01 T10501101  RH  068%=      5-min Rain = 0
KPA1 140439Z 11010KT M05/M10 A3029 RMK A01 T10501100  RH  068%=      5-min Rain = 0
KPA1 140440Z 11011KT M05/M10 A3029 RMK A01 T10501101  RH  068%=      5-min Rain = 0
KPA1 140441Z 11011KT M05/M10 A3029 RMK A01 T10501101  RH  067%=      5-min Rain = 0
KPA1 140442Z 11012KT M05/M10 A3029 RMK A01 T10501101  RH  068%=      5-min Rain = 0
KPA1 140443Z 11012KT M05/M10 A3029 RMK A01 T10501102  RH  067%=      5-min Rain = 0
KPA1 140444Z 11011KT M05/M10 A3029 RMK A01 T10501102  RH  067%=      5-min Rain = 0
KPA1 140445Z 11010KT M05/M10 A3029 RMK A01 T10501102  RH  067%=      5-min Rain = 0
KPA1 140446Z 11011KT M05/M10 A3029 RMK A01 T10501101  RH  067%=      5-min Rain = 0
KPA1 140447Z 11011KT M05/M10 A3029 RMK A01 T10501102  RH  067%=      5-min Rain = 0
KPA1 140448Z 11011KT M05/M10 A3029 RMK A01 T10501103  RH  066%=      5-min Rain = 0
KPA1 140449Z 11012KT M05/M10 A3029 RMK A01 T10511104  RH  066%=      5-min Rain = 0
KPA1 140450Z 11011KT M05/M10 A3029 RMK A01 T10511104  RH  066%=      5-min Rain = 0
KPA1 140451Z 11012KT M05/M10 A3029 RMK A01 T10511104  RH  066%=      5-min Rain = 0
KPA1 140452Z 11011KT M05/M10 A3029 RMK A01 T10511104  RH  066%=      5-min Rain = 0
KPA1 140453Z 11012KT M05/M10 A3029 RMK A01 T10511104  RH  066%=      5-min Rain = 0
KPA1 140454Z 11012KT M05/M11 A3029 RMK A01 T10511105  RH  066%=      5-min Rain = 0
KPA1 140455Z 11011KT M05/M11 A3029 RMK A01 T10521105  RH  066%=      5-min Rain = 0
KPA1 140456Z 12010KT M05/M11 A3029 RMK A01 T10521105  RH  066%=      5-min Rain = 0
KPA1 140457Z 11010KT M05/M10 A3029 RMK A01 T10511104  RH  067%=      5-min Rain = 0
KPA1 140458Z 12011KT M05/M10 A3029 RMK A01 T10521103  RH  067%=      5-min Rain = 0
KPA1 140459Z 12011KT M05/M10 A3029 RMK A01 T10521104  RH  067%=      5-min Rain = 0
KPA1 140500Z 12011KT M05/M10 A3029 RMK A01 T10521104  RH  067%=      5-min Rain = 0
KPA1 140501Z 12011KT M05/M11 A3029 RMK A01 T10521105  RH  067%=      5-min Rain = 0
KPA1 140502Z 12011KT M05/M11 A3029 RMK A01 T10531105  RH  067%=      5-min Rain = 0
KPA1 140503Z 12011KT M05/M11 A3029 RMK A01 T10541106  RH  067%=      5-min Rain = 0
KPA1 140504Z 12012KT M06/M11 A3029 RMK A01 T10551107  RH  067%=      5-min Rain = 0
KPA1 140505Z 12011KT M06/M11 A3029 RMK A01 T10551107  RH  067%=      5-min Rain = 0
KPA1 140506Z 12010KT M06/M11 A3029 RMK A01 T10551107  RH  067%=      5-min Rain = 0
KPA1 140507Z 11009KT M06/M11 A3029 RMK A01 T10551107  RH  067%=      5-min Rain = 0
KPA1 140508Z 12010KT M06/M11 A3029 RMK A01 T10561107  RH  068%=      5-min Rain = 0
KPA1 140509Z 11010KT M06/M11 A3029 RMK A01 T10571107  RH  068%=      5-min Rain = 0
KPA1 140510Z 11009KT M06/M11 A3029 RMK A01 T10571107  RH  068%=      5-min Rain = 0
KPA1 140511Z 11011KT M06/M11 A3029 RMK A01 T10581107  RH  068%=      5-min Rain = 0
KPA1 140512Z 11009KT M06/M11 A3029 RMK A01 T10581107  RH  068%=      5-min Rain = 0
KPA1 140513Z 11009KT M06/M11 A3029 RMK A01 T10591108  RH  068%=      5-min Rain = 0
KPA1 140514Z 11009KT M06/M11 A3029 RMK A01 T10591107  RH  069%=      5-min Rain = 0
KPA1 140515Z 11009KT M06/M11 A3029 RMK A01 T10591106  RH  069%=      5-min Rain = 0
KPA1 140516Z 11011KT M06/M11 A3029 RMK A01 T10591106  RH  069%=      5-min Rain = 0
KPA1 140517Z 11009KT M06/M11 A3029 RMK A01 T10591107  RH  069%=      5-min Rain = 0
KPA1 140518Z 11009KT M06/M11 A3029 RMK A01 T10601107  RH  069%=      5-min Rain = 0
KPA1 140519Z 12010KT M06/M11 A3029 RMK A01 T10601106  RH  070%=      5-min Rain = 0
KPA1 140520Z 12010KT M06/M11 A3029 RMK A01 T10601107  RH  070%=      5-min Rain = 0
KPA1 140521Z 12008KT M06/M11 A3029 RMK A01 T10601106  RH  070%=      5-min Rain = 0
KPA1 140522Z 12008KT M06/M11 A3029 RMK A01 T10601106  RH  070%=      5-min Rain = 0
KPA1 140523Z 12007KT M06/M11 A3029 RMK A01 T10601105  RH  071%=      5-min Rain = 0
KPA1 140524Z 12008KT M06/M11 A3029 RMK A01 T10611105  RH  071%=      5-min Rain = 0
KPA1 140525Z 12007KT M06/M10 A3029 RMK A01 T10611104  RH  072%=      5-min Rain = 0
KPA1 140526Z 12007KT M06/M10 A3029 RMK A01 T10621104  RH  072%=      5-min Rain = 0
KPA1 140527Z 12008KT M06/M10 A3029 RMK A01 T10621104  RH  072%=      5-min Rain = 0
KPA1 140528Z 12008KT M06/M10 A3029 RMK A01 T10631104  RH  073%=      5-min Rain = 0
KPA1 140529Z 13008KT M06/M10 A3029 RMK A01 T10621104  RH  073%=      5-min Rain = 0
KPA1 140530Z 12007KT M06/M10 A3029 RMK A01 T10631104  RH  073%=      5-min Rain = 0
KPA1 140531Z 12007KT M06/M10 A3029 RMK A01 T10631103  RH  073%=      5-min Rain = 0
KPA1 140532Z 12008KT M06/M10 A3029 RMK A01 T10641103  RH  074%=      5-min Rain = 0
KPA1 140533Z 12007KT M06/M10 A3029 RMK A01 T10631102  RH  074%=      5-min Rain = 0
KPA1 140534Z 11008KT M06/M10 A3029 RMK A01 T10641102  RH  074%=      5-min Rain = 0
KPA1 140535Z 12009KT M06/M10 A3029 RMK A01 T10641103  RH  074%=      5-min Rain = 0
KPA1 140536Z 12009KT M06/M11 A3029 RMK A01 T10641105  RH  073%=      5-min Rain = 0
KPA1 140537Z 12009KT M06/M11 A3029 RMK A01 T10641105  RH  072%=      5-min Rain = 0
KPA1 140538Z 12008KT M06/M11 A3029 RMK A01 T10641106  RH  072%=      5-min Rain = 0
KPA1 140539Z 12007KT M06/M11 A3029 RMK A01 T10641106  RH  072%=      5-min Rain = 0
KPA1 140540Z 12007KT M06/M11 A3029 RMK A01 T10641106  RH  072%=      5-min Rain = 0
KPA1 140541Z 12006KT M07/M11 A3029 RMK A01 T10651105  RH  073%=      5-min Rain = 0
KPA1 140542Z 12006KT M07/M10 A3029 RMK A01 T10651104  RH  074%=      5-min Rain = 0
KPA1 140543Z 12005KT M07/M10 A3029 RMK A01 T10661104  RH  074%=      5-min Rain = 0
KPA1 140544Z 12006KT M07/M10 A3029 RMK A01 T10661104  RH  075%=      5-min Rain = 0
KPA1 140545Z 12007KT M07/M10 A3028 RMK A01 T10671104  RH  075%=      5-min Rain = 0
KPA1 140546Z 12007KT M07/M10 A3028 RMK A01 T10671103  RH  075%=      5-min Rain = 0
KPA1 140547Z 13007KT M07/M10 A3028 RMK A01 T10671103  RH  075%=      5-min Rain = 0
KPA1 140548Z 12006KT M07/M10 A3028 RMK A01 T10671103  RH  075%=      5-min Rain = 0
KPA1 140549Z 12006KT M07/M10 A3028 RMK A01 T10671103  RH  075%=      5-min Rain = 0
KPA1 140550Z 12008KT M07/M10 A3028 RMK A01 T10671103  RH  075%=      5-min Rain = 0
KPA1 140551Z 12007KT M07/M10 A3028 RMK A01 T10671104  RH  075%=      5-min Rain = 0
KPA1 140552Z 12008KT M07/M11 A3028 RMK A01 T10671105  RH  074%=      5-min Rain = 0
KPA1 140553Z 13007KT M07/M11 A3029 RMK A01 T10661105  RH  074%=      5-min Rain = 0
KPA1 140554Z 13007KT M07/M11 A3029 RMK A01 T10661105  RH  074%=      5-min Rain = 0
KPA1 140555Z 12007KT M07/M11 A3029 RMK A01 T10671105  RH  074%=      5-min Rain = 0
KPA1 140556Z 12006KT M07/M11 A3029 RMK A01 T10671105  RH  075%=      5-min Rain = 0
KPA1 140557Z 12007KT M07/M10 A3029 RMK A01 T10681104  RH  075%=      5-min Rain = 0
KPA1 140558Z 12008KT M07/M10 A3029 RMK A01 T10681104  RH  075%=      5-min Rain = 0
KPA1 140559Z 12007KT M07/M11 A3029 RMK A01 T10671105  RH  075%=      5-min Rain = 0

Page generated in 0.1209 seconds.